<?xml version="1.0" encoding="UTF-8" standalone="no" ?>
<gpx xmlns="http://www.topografix.com/GPX/1/1" xmlns:xsi="http://www.w3.org/2001/XMLSchema-instance" xsi:schemaLocation="http://www.topografix.com/GPX/1/1 http://www.topografix.com/GPX/1/1/gpx.xsd" version="1.1" creator="VisuGPX - https://www.visugpx.com">
  <metadata>
    <name>oeillon depuis maclas</name>
  </metadata>
  <trk>
    <name><![CDATA[oeillon depuis maclas_1]]></name>
    <trkseg>
      <trkpt lat="45.36173" lon="4.68495">
        <ele>405.1</ele>
        <time>2020-12-26T15:50:57.000Z</time>
      </trkpt>
      <trkpt lat="45.36172" lon="4.68492">
        <ele>405.2</ele>
        <time>2020-12-26T15:50:56.000Z</time>
      </trkpt>
      <trkpt lat="45.36171" lon="4.68478">
        <ele>405.6</ele>
        <time>2020-12-26T15:50:53.000Z</time>
      </trkpt>
      <trkpt lat="45.3618" lon="4.68467">
        <ele>405.9</ele>
        <time>2020-12-26T15:50:50.000Z</time>
      </trkpt>
      <trkpt lat="45.36194" lon="4.68462">
        <ele>406.2</ele>
        <time>2020-12-26T15:50:47.000Z</time>
      </trkpt>
      <trkpt lat="45.36196" lon="4.68458">
        <ele>406.4</ele>
        <time>2020-12-26T15:50:46.000Z</time>
      </trkpt>
      <trkpt lat="45.36196" lon="4.68454">
        <ele>406.5</ele>
        <time>2020-12-26T15:50:45.000Z</time>
      </trkpt>
      <trkpt lat="45.36193" lon="4.68447">
        <ele>406.7</ele>
        <time>2020-12-26T15:50:44.000Z</time>
      </trkpt>
      <trkpt lat="45.36178" lon="4.68419">
        <ele>407.2</ele>
        <time>2020-12-26T15:50:41.000Z</time>
      </trkpt>
      <trkpt lat="45.36172" lon="4.68409">
        <ele>407.4</ele>
        <time>2020-12-26T15:50:40.000Z</time>
      </trkpt>
      <trkpt lat="45.36166" lon="4.68398">
        <ele>407.7</ele>
        <time>2020-12-26T15:50:39.000Z</time>
      </trkpt>
      <trkpt lat="45.36154" lon="4.68376">
        <ele>408.6</ele>
        <time>2020-12-26T15:50:37.000Z</time>
      </trkpt>
      <trkpt lat="45.36135" lon="4.68342">
        <ele>410.1</ele>
        <time>2020-12-26T15:50:34.000Z</time>
      </trkpt>
      <trkpt lat="45.36128" lon="4.68331">
        <ele>410.6</ele>
        <time>2020-12-26T15:50:33.000Z</time>
      </trkpt>
      <trkpt lat="45.36122" lon="4.68319">
        <ele>411.2</ele>
        <time>2020-12-26T15:50:32.000Z</time>
      </trkpt>
      <trkpt lat="45.36115" lon="4.68307">
        <ele>411.8</ele>
        <time>2020-12-26T15:50:31.000Z</time>
      </trkpt>
      <trkpt lat="45.36096" lon="4.68272">
        <ele>413.7</ele>
        <time>2020-12-26T15:50:28.000Z</time>
      </trkpt>
      <trkpt lat="45.36062" lon="4.68211">
        <ele>414.8</ele>
        <time>2020-12-26T15:50:22.000Z</time>
      </trkpt>
      <trkpt lat="45.36057" lon="4.68201">
        <ele>414.9</ele>
        <time>2020-12-26T15:50:21.000Z</time>
      </trkpt>
      <trkpt lat="45.36042" lon="4.68175">
        <ele>415.3</ele>
        <time>2020-12-26T15:50:18.000Z</time>
      </trkpt>
      <trkpt lat="45.36034" lon="4.68157">
        <ele>415.7</ele>
        <time>2020-12-26T15:50:16.000Z</time>
      </trkpt>
      <trkpt lat="45.36002" lon="4.68101">
        <ele>417.4</ele>
        <time>2020-12-26T15:50:09.000Z</time>
      </trkpt>
      <trkpt lat="45.35995" lon="4.68086">
        <ele>417.8</ele>
        <time>2020-12-26T15:50:07.000Z</time>
      </trkpt>
      <trkpt lat="45.35977" lon="4.68053">
        <ele>419.2</ele>
        <time>2020-12-26T15:50:02.000Z</time>
      </trkpt>
      <trkpt lat="45.35973" lon="4.68046">
        <ele>419.4</ele>
        <time>2020-12-26T15:50:01.000Z</time>
      </trkpt>
      <trkpt lat="45.35969" lon="4.6804">
        <ele>419.7</ele>
        <time>2020-12-26T15:50:00.000Z</time>
      </trkpt>
      <trkpt lat="45.35941" lon="4.67988">
        <ele>421.7</ele>
        <time>2020-12-26T15:49:52.000Z</time>
      </trkpt>
      <trkpt lat="45.35926" lon="4.67959">
        <ele>422.5</ele>
        <time>2020-12-26T15:49:48.000Z</time>
      </trkpt>
      <trkpt lat="45.35912" lon="4.67936">
        <ele>423</ele>
        <time>2020-12-26T15:49:45.000Z</time>
      </trkpt>
      <trkpt lat="45.35908" lon="4.67927">
        <ele>423</ele>
        <time>2020-12-26T15:49:44.000Z</time>
      </trkpt>
      <trkpt lat="45.35894" lon="4.679">
        <ele>423</ele>
        <time>2020-12-26T15:49:41.000Z</time>
      </trkpt>
      <trkpt lat="45.35889" lon="4.6789">
        <ele>423.1</ele>
        <time>2020-12-26T15:49:40.000Z</time>
      </trkpt>
      <trkpt lat="45.35862" lon="4.67839">
        <ele>423.4</ele>
        <time>2020-12-26T15:49:35.000Z</time>
      </trkpt>
      <trkpt lat="45.35838" lon="4.67795">
        <ele>424.5</ele>
        <time>2020-12-26T15:49:30.000Z</time>
      </trkpt>
      <trkpt lat="45.35811" lon="4.67748">
        <ele>426.6</ele>
        <time>2020-12-26T15:49:23.000Z</time>
      </trkpt>
      <trkpt lat="45.35798" lon="4.67725">
        <ele>427.6</ele>
        <time>2020-12-26T15:49:19.000Z</time>
      </trkpt>
      <trkpt lat="45.35789" lon="4.67708">
        <ele>428.1</ele>
        <time>2020-12-26T15:49:16.000Z</time>
      </trkpt>
      <trkpt lat="45.35786" lon="4.67702">
        <ele>428.3</ele>
        <time>2020-12-26T15:49:15.000Z</time>
      </trkpt>
      <trkpt lat="45.35783" lon="4.67691">
        <ele>428.6</ele>
        <time>2020-12-26T15:49:13.000Z</time>
      </trkpt>
      <trkpt lat="45.35781" lon="4.67686">
        <ele>428.7</ele>
        <time>2020-12-26T15:49:12.000Z</time>
      </trkpt>
      <trkpt lat="45.35781" lon="4.67682">
        <ele>428.9</ele>
        <time>2020-12-26T15:49:11.000Z</time>
      </trkpt>
      <trkpt lat="45.3578" lon="4.67677">
        <ele>429.1</ele>
        <time>2020-12-26T15:49:10.000Z</time>
      </trkpt>
      <trkpt lat="45.35783" lon="4.67669">
        <ele>429.6</ele>
        <time>2020-12-26T15:49:08.000Z</time>
      </trkpt>
      <trkpt lat="45.35787" lon="4.67658">
        <ele>430.5</ele>
        <time>2020-12-26T15:49:06.000Z</time>
      </trkpt>
      <trkpt lat="45.35789" lon="4.67649">
        <ele>431.1</ele>
        <time>2020-12-26T15:49:05.000Z</time>
      </trkpt>
      <trkpt lat="45.35792" lon="4.67639">
        <ele>431.9</ele>
        <time>2020-12-26T15:49:04.000Z</time>
      </trkpt>
      <trkpt lat="45.358" lon="4.67615">
        <ele>433.6</ele>
        <time>2020-12-26T15:49:02.000Z</time>
      </trkpt>
      <trkpt lat="45.35804" lon="4.67602">
        <ele>434.6</ele>
        <time>2020-12-26T15:49:01.000Z</time>
      </trkpt>
      <trkpt lat="45.35809" lon="4.6759">
        <ele>435.6</ele>
        <time>2020-12-26T15:49:00.000Z</time>
      </trkpt>
      <trkpt lat="45.35814" lon="4.67578">
        <ele>436.6</ele>
        <time>2020-12-26T15:48:59.000Z</time>
      </trkpt>
      <trkpt lat="45.35819" lon="4.67551">
        <ele>438.1</ele>
        <time>2020-12-26T15:48:57.000Z</time>
      </trkpt>
      <trkpt lat="45.35823" lon="4.67525">
        <ele>439.4</ele>
        <time>2020-12-26T15:48:55.000Z</time>
      </trkpt>
      <trkpt lat="45.35829" lon="4.67499">
        <ele>440.7</ele>
        <time>2020-12-26T15:48:53.000Z</time>
      </trkpt>
      <trkpt lat="45.35834" lon="4.67474">
        <ele>441.3</ele>
        <time>2020-12-26T15:48:51.000Z</time>
      </trkpt>
      <trkpt lat="45.3584" lon="4.6745">
        <ele>441.6</ele>
        <time>2020-12-26T15:48:49.000Z</time>
      </trkpt>
      <trkpt lat="45.35845" lon="4.67439">
        <ele>441.8</ele>
        <time>2020-12-26T15:48:48.000Z</time>
      </trkpt>
      <trkpt lat="45.35862" lon="4.67411">
        <ele>442.5</ele>
        <time>2020-12-26T15:48:45.000Z</time>
      </trkpt>
      <trkpt lat="45.35867" lon="4.67403">
        <ele>442.8</ele>
        <time>2020-12-26T15:48:44.000Z</time>
      </trkpt>
      <trkpt lat="45.35887" lon="4.67385">
        <ele>444</ele>
        <time>2020-12-26T15:48:41.000Z</time>
      </trkpt>
      <trkpt lat="45.35901" lon="4.67372">
        <ele>445.1</ele>
        <time>2020-12-26T15:48:39.000Z</time>
      </trkpt>
      <trkpt lat="45.35914" lon="4.67357">
        <ele>446.4</ele>
        <time>2020-12-26T15:48:37.000Z</time>
      </trkpt>
      <trkpt lat="45.35926" lon="4.67341">
        <ele>447.9</ele>
        <time>2020-12-26T15:48:35.000Z</time>
      </trkpt>
      <trkpt lat="45.35943" lon="4.67318">
        <ele>449.8</ele>
        <time>2020-12-26T15:48:32.000Z</time>
      </trkpt>
      <trkpt lat="45.35954" lon="4.67301">
        <ele>451</ele>
        <time>2020-12-26T15:48:30.000Z</time>
      </trkpt>
      <trkpt lat="45.35961" lon="4.67286">
        <ele>452.2</ele>
        <time>2020-12-26T15:48:28.000Z</time>
      </trkpt>
      <trkpt lat="45.35967" lon="4.67272">
        <ele>453.2</ele>
        <time>2020-12-26T15:48:26.000Z</time>
      </trkpt>
      <trkpt lat="45.3598" lon="4.67248">
        <ele>455.1</ele>
        <time>2020-12-26T15:48:22.000Z</time>
      </trkpt>
      <trkpt lat="45.35985" lon="4.67235">
        <ele>455.7</ele>
        <time>2020-12-26T15:48:20.000Z</time>
      </trkpt>
      <trkpt lat="45.35989" lon="4.67229">
        <ele>456.1</ele>
        <time>2020-12-26T15:48:19.000Z</time>
      </trkpt>
      <trkpt lat="45.36001" lon="4.67212">
        <ele>457.4</ele>
        <time>2020-12-26T15:48:16.000Z</time>
      </trkpt>
      <trkpt lat="45.36005" lon="4.67206">
        <ele>457.5</ele>
        <time>2020-12-26T15:48:15.000Z</time>
      </trkpt>
      <trkpt lat="45.36025" lon="4.6718">
        <ele>458.5</ele>
        <time>2020-12-26T15:48:10.000Z</time>
      </trkpt>
      <trkpt lat="45.36028" lon="4.67174">
        <ele>458.7</ele>
        <time>2020-12-26T15:48:09.000Z</time>
      </trkpt>
      <trkpt lat="45.36036" lon="4.67157">
        <ele>459.3</ele>
        <time>2020-12-26T15:48:06.000Z</time>
      </trkpt>
      <trkpt lat="45.36037" lon="4.67149">
        <ele>459.5</ele>
        <time>2020-12-26T15:48:05.000Z</time>
      </trkpt>
      <trkpt lat="45.36034" lon="4.67123">
        <ele>460</ele>
        <time>2020-12-26T15:48:01.000Z</time>
      </trkpt>
      <trkpt lat="45.36029" lon="4.67094">
        <ele>460.5</ele>
        <time>2020-12-26T15:47:55.000Z</time>
      </trkpt>
      <trkpt lat="45.36024" lon="4.67067">
        <ele>460.7</ele>
        <time>2020-12-26T15:47:50.000Z</time>
      </trkpt>
      <trkpt lat="45.36024" lon="4.67061">
        <ele>460.8</ele>
        <time>2020-12-26T15:47:49.000Z</time>
      </trkpt>
      <trkpt lat="45.36025" lon="4.67026">
        <ele>461.4</ele>
        <time>2020-12-26T15:47:44.000Z</time>
      </trkpt>
      <trkpt lat="45.36027" lon="4.66978">
        <ele>463.5</ele>
        <time>2020-12-26T15:47:38.000Z</time>
      </trkpt>
      <trkpt lat="45.36027" lon="4.66971">
        <ele>464.1</ele>
        <time>2020-12-26T15:47:37.000Z</time>
      </trkpt>
      <trkpt lat="45.36028" lon="4.66964">
        <ele>464.6</ele>
        <time>2020-12-26T15:47:36.000Z</time>
      </trkpt>
      <trkpt lat="45.36028" lon="4.66952">
        <ele>465.5</ele>
        <time>2020-12-26T15:47:34.000Z</time>
      </trkpt>
      <trkpt lat="45.36021" lon="4.66941">
        <ele>465.9</ele>
        <time>2020-12-26T15:47:32.000Z</time>
      </trkpt>
      <trkpt lat="45.36009" lon="4.66936">
        <ele>465.8</ele>
        <time>2020-12-26T15:47:30.000Z</time>
      </trkpt>
      <trkpt lat="45.36003" lon="4.66934">
        <ele>465.7</ele>
        <time>2020-12-26T15:47:29.000Z</time>
      </trkpt>
      <trkpt lat="45.35997" lon="4.66933">
        <ele>465.6</ele>
        <time>2020-12-26T15:47:28.000Z</time>
      </trkpt>
      <trkpt lat="45.35986" lon="4.66935">
        <ele>465.3</ele>
        <time>2020-12-26T15:47:26.000Z</time>
      </trkpt>
      <trkpt lat="45.35969" lon="4.66939">
        <ele>464.9</ele>
        <time>2020-12-26T15:47:23.000Z</time>
      </trkpt>
      <trkpt lat="45.35964" lon="4.66939">
        <ele>464.9</ele>
        <time>2020-12-26T15:47:22.000Z</time>
      </trkpt>
      <trkpt lat="45.35955" lon="4.66936">
        <ele>465.1</ele>
        <time>2020-12-26T15:47:20.000Z</time>
      </trkpt>
      <trkpt lat="45.35952" lon="4.66931">
        <ele>465.4</ele>
        <time>2020-12-26T15:47:19.000Z</time>
      </trkpt>
      <trkpt lat="45.35951" lon="4.66926">
        <ele>465.8</ele>
        <time>2020-12-26T15:47:18.000Z</time>
      </trkpt>
      <trkpt lat="45.35949" lon="4.6692">
        <ele>466.1</ele>
        <time>2020-12-26T15:47:17.000Z</time>
      </trkpt>
      <trkpt lat="45.35951" lon="4.66912">
        <ele>466.8</ele>
        <time>2020-12-26T15:47:15.000Z</time>
      </trkpt>
      <trkpt lat="45.35956" lon="4.66903">
        <ele>467.6</ele>
        <time>2020-12-26T15:47:13.000Z</time>
      </trkpt>
      <trkpt lat="45.35961" lon="4.66896">
        <ele>468.2</ele>
        <time>2020-12-26T15:47:12.000Z</time>
      </trkpt>
      <trkpt lat="45.35965" lon="4.66886">
        <ele>469</ele>
        <time>2020-12-26T15:47:11.000Z</time>
      </trkpt>
      <trkpt lat="45.35974" lon="4.66864">
        <ele>470.9</ele>
        <time>2020-12-26T15:47:09.000Z</time>
      </trkpt>
      <trkpt lat="45.35983" lon="4.66843">
        <ele>472.8</ele>
        <time>2020-12-26T15:47:07.000Z</time>
      </trkpt>
      <trkpt lat="45.35987" lon="4.66832">
        <ele>473.8</ele>
        <time>2020-12-26T15:47:06.000Z</time>
      </trkpt>
      <trkpt lat="45.35992" lon="4.66822">
        <ele>474.7</ele>
        <time>2020-12-26T15:47:05.000Z</time>
      </trkpt>
      <trkpt lat="45.35996" lon="4.66801">
        <ele>476.5</ele>
        <time>2020-12-26T15:47:03.000Z</time>
      </trkpt>
      <trkpt lat="45.35995" lon="4.6678">
        <ele>478.2</ele>
        <time>2020-12-26T15:47:01.000Z</time>
      </trkpt>
      <trkpt lat="45.35994" lon="4.66771">
        <ele>478.9</ele>
        <time>2020-12-26T15:47:00.000Z</time>
      </trkpt>
      <trkpt lat="45.35994" lon="4.66763">
        <ele>479.6</ele>
        <time>2020-12-26T15:46:59.000Z</time>
      </trkpt>
      <trkpt lat="45.35996" lon="4.66756">
        <ele>480.3</ele>
        <time>2020-12-26T15:46:58.000Z</time>
      </trkpt>
      <trkpt lat="45.36" lon="4.66752">
        <ele>480.8</ele>
        <time>2020-12-26T15:46:57.000Z</time>
      </trkpt>
      <trkpt lat="45.36005" lon="4.66747">
        <ele>481</ele>
        <time>2020-12-26T15:46:56.000Z</time>
      </trkpt>
      <trkpt lat="45.36011" lon="4.66742">
        <ele>481.1</ele>
        <time>2020-12-26T15:46:55.000Z</time>
      </trkpt>
      <trkpt lat="45.36021" lon="4.66729">
        <ele>481.3</ele>
        <time>2020-12-26T15:46:53.000Z</time>
      </trkpt>
      <trkpt lat="45.36024" lon="4.66723">
        <ele>481.5</ele>
        <time>2020-12-26T15:46:52.000Z</time>
      </trkpt>
      <trkpt lat="45.36037" lon="4.66686">
        <ele>482.4</ele>
        <time>2020-12-26T15:46:47.000Z</time>
      </trkpt>
      <trkpt lat="45.36045" lon="4.66657">
        <ele>483.4</ele>
        <time>2020-12-26T15:46:44.000Z</time>
      </trkpt>
      <trkpt lat="45.36054" lon="4.66625">
        <ele>484.8</ele>
        <time>2020-12-26T15:46:41.000Z</time>
      </trkpt>
      <trkpt lat="45.3606" lon="4.66602">
        <ele>485.9</ele>
        <time>2020-12-26T15:46:39.000Z</time>
      </trkpt>
      <trkpt lat="45.36065" lon="4.66577">
        <ele>486.9</ele>
        <time>2020-12-26T15:46:37.000Z</time>
      </trkpt>
      <trkpt lat="45.3607" lon="4.66552">
        <ele>487.7</ele>
        <time>2020-12-26T15:46:35.000Z</time>
      </trkpt>
      <trkpt lat="45.36077" lon="4.66515">
        <ele>488.6</ele>
        <time>2020-12-26T15:46:32.000Z</time>
      </trkpt>
      <trkpt lat="45.3608" lon="4.66504">
        <ele>488.9</ele>
        <time>2020-12-26T15:46:31.000Z</time>
      </trkpt>
      <trkpt lat="45.36085" lon="4.66479">
        <ele>491.3</ele>
        <time>2020-12-26T15:46:28.000Z</time>
      </trkpt>
      <trkpt lat="45.36085" lon="4.66472">
        <ele>492</ele>
        <time>2020-12-26T15:46:27.000Z</time>
      </trkpt>
      <trkpt lat="45.36084" lon="4.66453">
        <ele>494.1</ele>
        <time>2020-12-26T15:46:23.000Z</time>
      </trkpt>
      <trkpt lat="45.3608" lon="4.66452">
        <ele>494.1</ele>
        <time>2020-12-26T15:45:46.000Z</time>
      </trkpt>
      <trkpt lat="45.36079" lon="4.66453">
        <ele>494</ele>
        <time>2020-12-26T15:45:45.000Z</time>
      </trkpt>
      <trkpt lat="45.36078" lon="4.66454">
        <ele>493.9</ele>
        <time>2020-12-26T15:45:44.000Z</time>
      </trkpt>
      <trkpt lat="45.36076" lon="4.66454">
        <ele>493.9</ele>
        <time>2020-12-26T15:45:42.000Z</time>
      </trkpt>
      <trkpt lat="45.36075" lon="4.66454">
        <ele>493.9</ele>
        <time>2020-12-26T15:45:41.000Z</time>
      </trkpt>
      <trkpt lat="45.36063" lon="4.6645">
        <ele>494.1</ele>
        <time>2020-12-26T15:45:38.000Z</time>
      </trkpt>
      <trkpt lat="45.36044" lon="4.66436">
        <ele>495.2</ele>
        <time>2020-12-26T15:45:35.000Z</time>
      </trkpt>
      <trkpt lat="45.36039" lon="4.66429">
        <ele>495.8</ele>
        <time>2020-12-26T15:45:34.000Z</time>
      </trkpt>
      <trkpt lat="45.36026" lon="4.66405">
        <ele>497.9</ele>
        <time>2020-12-26T15:45:31.000Z</time>
      </trkpt>
      <trkpt lat="45.36018" lon="4.6639">
        <ele>499.5</ele>
        <time>2020-12-26T15:45:29.000Z</time>
      </trkpt>
      <trkpt lat="45.36012" lon="4.66376">
        <ele>501</ele>
        <time>2020-12-26T15:45:27.000Z</time>
      </trkpt>
      <trkpt lat="45.36003" lon="4.66357">
        <ele>503.2</ele>
        <time>2020-12-26T15:45:24.000Z</time>
      </trkpt>
      <trkpt lat="45.35998" lon="4.66345">
        <ele>504.5</ele>
        <time>2020-12-26T15:45:22.000Z</time>
      </trkpt>
      <trkpt lat="45.35993" lon="4.66333">
        <ele>505.5</ele>
        <time>2020-12-26T15:45:20.000Z</time>
      </trkpt>
      <trkpt lat="45.35979" lon="4.66311">
        <ele>505.9</ele>
        <time>2020-12-26T15:45:16.000Z</time>
      </trkpt>
      <trkpt lat="45.35964" lon="4.66291">
        <ele>506.2</ele>
        <time>2020-12-26T15:45:11.000Z</time>
      </trkpt>
      <trkpt lat="45.35959" lon="4.66281">
        <ele>506.5</ele>
        <time>2020-12-26T15:45:08.000Z</time>
      </trkpt>
      <trkpt lat="45.35956" lon="4.66277">
        <ele>506.6</ele>
        <time>2020-12-26T15:44:17.000Z</time>
      </trkpt>
      <trkpt lat="45.35957" lon="4.66276">
        <ele>506.7</ele>
        <time>2020-12-26T15:44:16.000Z</time>
      </trkpt>
      <trkpt lat="45.35959" lon="4.66272">
        <ele>507.1</ele>
        <time>2020-12-26T15:44:14.000Z</time>
      </trkpt>
      <trkpt lat="45.35971" lon="4.66258">
        <ele>508.8</ele>
        <time>2020-12-26T15:44:11.000Z</time>
      </trkpt>
      <trkpt lat="45.35982" lon="4.66245">
        <ele>510.1</ele>
        <time>2020-12-26T15:44:09.000Z</time>
      </trkpt>
      <trkpt lat="45.35987" lon="4.66237">
        <ele>510.8</ele>
        <time>2020-12-26T15:44:08.000Z</time>
      </trkpt>
      <trkpt lat="45.35993" lon="4.6622">
        <ele>512</ele>
        <time>2020-12-26T15:44:06.000Z</time>
      </trkpt>
      <trkpt lat="45.35998" lon="4.66202">
        <ele>513.2</ele>
        <time>2020-12-26T15:44:04.000Z</time>
      </trkpt>
      <trkpt lat="45.36005" lon="4.66184">
        <ele>514.5</ele>
        <time>2020-12-26T15:44:02.000Z</time>
      </trkpt>
      <trkpt lat="45.36015" lon="4.66168">
        <ele>515.8</ele>
        <time>2020-12-26T15:44:00.000Z</time>
      </trkpt>
      <trkpt lat="45.36027" lon="4.66148">
        <ele>517.9</ele>
        <time>2020-12-26T15:43:57.000Z</time>
      </trkpt>
      <trkpt lat="45.3603" lon="4.6614">
        <ele>518.6</ele>
        <time>2020-12-26T15:43:56.000Z</time>
      </trkpt>
      <trkpt lat="45.36031" lon="4.66132">
        <ele>519.2</ele>
        <time>2020-12-26T15:43:55.000Z</time>
      </trkpt>
      <trkpt lat="45.36032" lon="4.66125">
        <ele>519.7</ele>
        <time>2020-12-26T15:43:54.000Z</time>
      </trkpt>
      <trkpt lat="45.36032" lon="4.66118">
        <ele>520.2</ele>
        <time>2020-12-26T15:43:53.000Z</time>
      </trkpt>
      <trkpt lat="45.36032" lon="4.66104">
        <ele>521.1</ele>
        <time>2020-12-26T15:43:51.000Z</time>
      </trkpt>
      <trkpt lat="45.36033" lon="4.66097">
        <ele>521.7</ele>
        <time>2020-12-26T15:43:50.000Z</time>
      </trkpt>
      <trkpt lat="45.36035" lon="4.6609">
        <ele>522.3</ele>
        <time>2020-12-26T15:43:49.000Z</time>
      </trkpt>
      <trkpt lat="45.36039" lon="4.66072">
        <ele>524</ele>
        <time>2020-12-26T15:43:47.000Z</time>
      </trkpt>
      <trkpt lat="45.36039" lon="4.66063">
        <ele>525</ele>
        <time>2020-12-26T15:43:46.000Z</time>
      </trkpt>
      <trkpt lat="45.36038" lon="4.66053">
        <ele>526</ele>
        <time>2020-12-26T15:43:45.000Z</time>
      </trkpt>
      <trkpt lat="45.36038" lon="4.66033">
        <ele>528</ele>
        <time>2020-12-26T15:43:43.000Z</time>
      </trkpt>
      <trkpt lat="45.36041" lon="4.66014">
        <ele>530</ele>
        <time>2020-12-26T15:43:41.000Z</time>
      </trkpt>
      <trkpt lat="45.36044" lon="4.66007">
        <ele>530.8</ele>
        <time>2020-12-26T15:43:40.000Z</time>
      </trkpt>
      <trkpt lat="45.36048" lon="4.66002">
        <ele>531.4</ele>
        <time>2020-12-26T15:43:39.000Z</time>
      </trkpt>
      <trkpt lat="45.36052" lon="4.65998">
        <ele>531.9</ele>
        <time>2020-12-26T15:43:38.000Z</time>
      </trkpt>
      <trkpt lat="45.36056" lon="4.65995">
        <ele>532.4</ele>
        <time>2020-12-26T15:43:37.000Z</time>
      </trkpt>
      <trkpt lat="45.3606" lon="4.65991">
        <ele>532.9</ele>
        <time>2020-12-26T15:43:36.000Z</time>
      </trkpt>
      <trkpt lat="45.36063" lon="4.6598">
        <ele>534.4</ele>
        <time>2020-12-26T15:43:34.000Z</time>
      </trkpt>
      <trkpt lat="45.36061" lon="4.65964">
        <ele>536.6</ele>
        <time>2020-12-26T15:43:32.000Z</time>
      </trkpt>
      <trkpt lat="45.36059" lon="4.65957">
        <ele>537.6</ele>
        <time>2020-12-26T15:43:31.000Z</time>
      </trkpt>
      <trkpt lat="45.36057" lon="4.6595">
        <ele>538.4</ele>
        <time>2020-12-26T15:43:30.000Z</time>
      </trkpt>
      <trkpt lat="45.36053" lon="4.65938">
        <ele>540.1</ele>
        <time>2020-12-26T15:43:28.000Z</time>
      </trkpt>
      <trkpt lat="45.36054" lon="4.65934">
        <ele>540.7</ele>
        <time>2020-12-26T15:43:27.000Z</time>
      </trkpt>
      <trkpt lat="45.36056" lon="4.65929">
        <ele>541.3</ele>
        <time>2020-12-26T15:43:26.000Z</time>
      </trkpt>
      <trkpt lat="45.3606" lon="4.65925">
        <ele>541.9</ele>
        <time>2020-12-26T15:43:25.000Z</time>
      </trkpt>
      <trkpt lat="45.36064" lon="4.6592">
        <ele>542.6</ele>
        <time>2020-12-26T15:43:24.000Z</time>
      </trkpt>
      <trkpt lat="45.36071" lon="4.65914">
        <ele>543.4</ele>
        <time>2020-12-26T15:43:23.000Z</time>
      </trkpt>
      <trkpt lat="45.36076" lon="4.65908">
        <ele>544.2</ele>
        <time>2020-12-26T15:43:22.000Z</time>
      </trkpt>
      <trkpt lat="45.36086" lon="4.65896">
        <ele>545.2</ele>
        <time>2020-12-26T15:43:20.000Z</time>
      </trkpt>
      <trkpt lat="45.36089" lon="4.65889">
        <ele>545.4</ele>
        <time>2020-12-26T15:43:19.000Z</time>
      </trkpt>
      <trkpt lat="45.36095" lon="4.65878">
        <ele>545.5</ele>
        <time>2020-12-26T15:43:17.000Z</time>
      </trkpt>
      <trkpt lat="45.36099" lon="4.65873">
        <ele>545.5</ele>
        <time>2020-12-26T15:43:16.000Z</time>
      </trkpt>
      <trkpt lat="45.36099" lon="4.65869">
        <ele>545.9</ele>
        <time>2020-12-26T15:43:15.000Z</time>
      </trkpt>
      <trkpt lat="45.36099" lon="4.65865">
        <ele>546.4</ele>
        <time>2020-12-26T15:43:14.000Z</time>
      </trkpt>
      <trkpt lat="45.36098" lon="4.65862">
        <ele>547.1</ele>
        <time>2020-12-26T15:43:13.000Z</time>
      </trkpt>
      <trkpt lat="45.36097" lon="4.65858">
        <ele>547.8</ele>
        <time>2020-12-26T15:43:12.000Z</time>
      </trkpt>
      <trkpt lat="45.36095" lon="4.65854">
        <ele>548.9</ele>
        <time>2020-12-26T15:43:11.000Z</time>
      </trkpt>
      <trkpt lat="45.36085" lon="4.65849">
        <ele>551.6</ele>
        <time>2020-12-26T15:43:09.000Z</time>
      </trkpt>
      <trkpt lat="45.36073" lon="4.65848">
        <ele>552.2</ele>
        <time>2020-12-26T15:43:07.000Z</time>
      </trkpt>
      <trkpt lat="45.36061" lon="4.65847">
        <ele>552.5</ele>
        <time>2020-12-26T15:43:05.000Z</time>
      </trkpt>
      <trkpt lat="45.36055" lon="4.65845">
        <ele>552.8</ele>
        <time>2020-12-26T15:43:04.000Z</time>
      </trkpt>
      <trkpt lat="45.3605" lon="4.65842">
        <ele>553.2</ele>
        <time>2020-12-26T15:43:03.000Z</time>
      </trkpt>
      <trkpt lat="45.36045" lon="4.65839">
        <ele>553.7</ele>
        <time>2020-12-26T15:43:02.000Z</time>
      </trkpt>
      <trkpt lat="45.36035" lon="4.65828">
        <ele>555.2</ele>
        <time>2020-12-26T15:43:00.000Z</time>
      </trkpt>
      <trkpt lat="45.36024" lon="4.65817">
        <ele>556.8</ele>
        <time>2020-12-26T15:42:58.000Z</time>
      </trkpt>
      <trkpt lat="45.36019" lon="4.65811">
        <ele>557.5</ele>
        <time>2020-12-26T15:42:57.000Z</time>
      </trkpt>
      <trkpt lat="45.36015" lon="4.65806">
        <ele>558.2</ele>
        <time>2020-12-26T15:42:56.000Z</time>
      </trkpt>
      <trkpt lat="45.36011" lon="4.65801">
        <ele>558.8</ele>
        <time>2020-12-26T15:42:55.000Z</time>
      </trkpt>
      <trkpt lat="45.36007" lon="4.65796">
        <ele>559.4</ele>
        <time>2020-12-26T15:42:54.000Z</time>
      </trkpt>
      <trkpt lat="45.36002" lon="4.65784">
        <ele>560.9</ele>
        <time>2020-12-26T15:42:52.000Z</time>
      </trkpt>
      <trkpt lat="45.35997" lon="4.65769">
        <ele>562.6</ele>
        <time>2020-12-26T15:42:50.000Z</time>
      </trkpt>
      <trkpt lat="45.35991" lon="4.6575">
        <ele>564.6</ele>
        <time>2020-12-26T15:42:48.000Z</time>
      </trkpt>
      <trkpt lat="45.35988" lon="4.65741">
        <ele>565.6</ele>
        <time>2020-12-26T15:42:47.000Z</time>
      </trkpt>
      <trkpt lat="45.35984" lon="4.65732">
        <ele>566.6</ele>
        <time>2020-12-26T15:42:46.000Z</time>
      </trkpt>
      <trkpt lat="45.35977" lon="4.65713">
        <ele>568.7</ele>
        <time>2020-12-26T15:42:44.000Z</time>
      </trkpt>
      <trkpt lat="45.35969" lon="4.65694">
        <ele>570.7</ele>
        <time>2020-12-26T15:42:42.000Z</time>
      </trkpt>
      <trkpt lat="45.35966" lon="4.65685">
        <ele>571.7</ele>
        <time>2020-12-26T15:42:41.000Z</time>
      </trkpt>
      <trkpt lat="45.35963" lon="4.65675">
        <ele>572.7</ele>
        <time>2020-12-26T15:42:40.000Z</time>
      </trkpt>
      <trkpt lat="45.35955" lon="4.65657">
        <ele>574.4</ele>
        <time>2020-12-26T15:42:38.000Z</time>
      </trkpt>
      <trkpt lat="45.35947" lon="4.65636">
        <ele>576.2</ele>
        <time>2020-12-26T15:42:36.000Z</time>
      </trkpt>
      <trkpt lat="45.35943" lon="4.65625">
        <ele>577.1</ele>
        <time>2020-12-26T15:42:35.000Z</time>
      </trkpt>
      <trkpt lat="45.35938" lon="4.65614">
        <ele>578</ele>
        <time>2020-12-26T15:42:34.000Z</time>
      </trkpt>
      <trkpt lat="45.3593" lon="4.65594">
        <ele>579.6</ele>
        <time>2020-12-26T15:42:32.000Z</time>
      </trkpt>
      <trkpt lat="45.35926" lon="4.65585">
        <ele>580.4</ele>
        <time>2020-12-26T15:42:31.000Z</time>
      </trkpt>
      <trkpt lat="45.35919" lon="4.65566">
        <ele>582</ele>
        <time>2020-12-26T15:42:29.000Z</time>
      </trkpt>
      <trkpt lat="45.35916" lon="4.65558">
        <ele>582.8</ele>
        <time>2020-12-26T15:42:28.000Z</time>
      </trkpt>
      <trkpt lat="45.35906" lon="4.65534">
        <ele>585.1</ele>
        <time>2020-12-26T15:42:25.000Z</time>
      </trkpt>
      <trkpt lat="45.35903" lon="4.65527">
        <ele>585.9</ele>
        <time>2020-12-26T15:42:24.000Z</time>
      </trkpt>
      <trkpt lat="45.359" lon="4.65521">
        <ele>586.6</ele>
        <time>2020-12-26T15:42:23.000Z</time>
      </trkpt>
      <trkpt lat="45.35893" lon="4.65505">
        <ele>588.4</ele>
        <time>2020-12-26T15:42:20.000Z</time>
      </trkpt>
      <trkpt lat="45.35891" lon="4.65499">
        <ele>589</ele>
        <time>2020-12-26T15:42:19.000Z</time>
      </trkpt>
      <trkpt lat="45.35888" lon="4.65493">
        <ele>589.4</ele>
        <time>2020-12-26T15:42:18.000Z</time>
      </trkpt>
      <trkpt lat="45.35877" lon="4.65467">
        <ele>590.8</ele>
        <time>2020-12-26T15:42:14.000Z</time>
      </trkpt>
      <trkpt lat="45.35871" lon="4.65452">
        <ele>591.6</ele>
        <time>2020-12-26T15:42:12.000Z</time>
      </trkpt>
      <trkpt lat="45.35868" lon="4.65445">
        <ele>591.9</ele>
        <time>2020-12-26T15:42:11.000Z</time>
      </trkpt>
      <trkpt lat="45.35862" lon="4.65431">
        <ele>592.6</ele>
        <time>2020-12-26T15:42:09.000Z</time>
      </trkpt>
      <trkpt lat="45.35859" lon="4.65424">
        <ele>592.9</ele>
        <time>2020-12-26T15:42:08.000Z</time>
      </trkpt>
      <trkpt lat="45.35855" lon="4.65417">
        <ele>593.2</ele>
        <time>2020-12-26T15:42:07.000Z</time>
      </trkpt>
      <trkpt lat="45.35852" lon="4.6541">
        <ele>593.4</ele>
        <time>2020-12-26T15:42:06.000Z</time>
      </trkpt>
      <trkpt lat="45.35846" lon="4.65394">
        <ele>593.7</ele>
        <time>2020-12-26T15:42:04.000Z</time>
      </trkpt>
      <trkpt lat="45.35838" lon="4.6537">
        <ele>594.2</ele>
        <time>2020-12-26T15:42:01.000Z</time>
      </trkpt>
      <trkpt lat="45.35832" lon="4.65353">
        <ele>594.5</ele>
        <time>2020-12-26T15:41:59.000Z</time>
      </trkpt>
      <trkpt lat="45.35827" lon="4.65337">
        <ele>594.9</ele>
        <time>2020-12-26T15:41:57.000Z</time>
      </trkpt>
      <trkpt lat="45.35824" lon="4.65328">
        <ele>595.3</ele>
        <time>2020-12-26T15:41:56.000Z</time>
      </trkpt>
      <trkpt lat="45.35812" lon="4.65286">
        <ele>597.8</ele>
        <time>2020-12-26T15:41:51.000Z</time>
      </trkpt>
      <trkpt lat="45.35808" lon="4.65273">
        <ele>598.8</ele>
        <time>2020-12-26T15:41:49.000Z</time>
      </trkpt>
      <trkpt lat="45.35804" lon="4.65263">
        <ele>599.6</ele>
        <time>2020-12-26T15:41:47.000Z</time>
      </trkpt>
      <trkpt lat="45.358" lon="4.65244">
        <ele>601</ele>
        <time>2020-12-26T15:41:42.000Z</time>
      </trkpt>
      <trkpt lat="45.35808" lon="4.65223">
        <ele>601.6</ele>
        <time>2020-12-26T15:41:36.000Z</time>
      </trkpt>
      <trkpt lat="45.35809" lon="4.65215">
        <ele>601.9</ele>
        <time>2020-12-26T15:41:33.000Z</time>
      </trkpt>
      <trkpt lat="45.35808" lon="4.65211">
        <ele>602.2</ele>
        <time>2020-12-26T15:41:00.000Z</time>
      </trkpt>
      <trkpt lat="45.35805" lon="4.65204">
        <ele>602.8</ele>
        <time>2020-12-26T15:40:58.000Z</time>
      </trkpt>
      <trkpt lat="45.35802" lon="4.65196">
        <ele>603.5</ele>
        <time>2020-12-26T15:40:56.000Z</time>
      </trkpt>
      <trkpt lat="45.35798" lon="4.65187">
        <ele>604.3</ele>
        <time>2020-12-26T15:40:54.000Z</time>
      </trkpt>
      <trkpt lat="45.35794" lon="4.65179">
        <ele>605.1</ele>
        <time>2020-12-26T15:40:52.000Z</time>
      </trkpt>
      <trkpt lat="45.35789" lon="4.65172">
        <ele>605.9</ele>
        <time>2020-12-26T15:40:50.000Z</time>
      </trkpt>
      <trkpt lat="45.35783" lon="4.65164">
        <ele>607.1</ele>
        <time>2020-12-26T15:40:48.000Z</time>
      </trkpt>
      <trkpt lat="45.35779" lon="4.6516">
        <ele>607.9</ele>
        <time>2020-12-26T15:40:47.000Z</time>
      </trkpt>
      <trkpt lat="45.35776" lon="4.65156">
        <ele>608.7</ele>
        <time>2020-12-26T15:40:46.000Z</time>
      </trkpt>
      <trkpt lat="45.35773" lon="4.6515">
        <ele>609.6</ele>
        <time>2020-12-26T15:40:45.000Z</time>
      </trkpt>
      <trkpt lat="45.3577" lon="4.65144">
        <ele>610.7</ele>
        <time>2020-12-26T15:40:44.000Z</time>
      </trkpt>
      <trkpt lat="45.35766" lon="4.65137">
        <ele>611.8</ele>
        <time>2020-12-26T15:40:43.000Z</time>
      </trkpt>
      <trkpt lat="45.35764" lon="4.6513">
        <ele>612.9</ele>
        <time>2020-12-26T15:40:42.000Z</time>
      </trkpt>
      <trkpt lat="45.35762" lon="4.65123">
        <ele>613.9</ele>
        <time>2020-12-26T15:40:41.000Z</time>
      </trkpt>
      <trkpt lat="45.35761" lon="4.65116">
        <ele>614.8</ele>
        <time>2020-12-26T15:40:40.000Z</time>
      </trkpt>
      <trkpt lat="45.35761" lon="4.65108">
        <ele>615.8</ele>
        <time>2020-12-26T15:40:39.000Z</time>
      </trkpt>
      <trkpt lat="45.3576" lon="4.65089">
        <ele>617.9</ele>
        <time>2020-12-26T15:40:37.000Z</time>
      </trkpt>
      <trkpt lat="45.35757" lon="4.65059">
        <ele>620.3</ele>
        <time>2020-12-26T15:40:34.000Z</time>
      </trkpt>
      <trkpt lat="45.35754" lon="4.65039">
        <ele>621.7</ele>
        <time>2020-12-26T15:40:32.000Z</time>
      </trkpt>
      <trkpt lat="45.35752" lon="4.65031">
        <ele>622.3</ele>
        <time>2020-12-26T15:40:31.000Z</time>
      </trkpt>
      <trkpt lat="45.35745" lon="4.65003">
        <ele>623.7</ele>
        <time>2020-12-26T15:40:27.000Z</time>
      </trkpt>
      <trkpt lat="45.35743" lon="4.64975">
        <ele>624.9</ele>
        <time>2020-12-26T15:40:23.000Z</time>
      </trkpt>
      <trkpt lat="45.35743" lon="4.64946">
        <ele>626.2</ele>
        <time>2020-12-26T15:40:18.000Z</time>
      </trkpt>
      <trkpt lat="45.35744" lon="4.64941">
        <ele>626.4</ele>
        <time>2020-12-26T15:40:17.000Z</time>
      </trkpt>
      <trkpt lat="45.35746" lon="4.64921">
        <ele>627.5</ele>
        <time>2020-12-26T15:40:12.000Z</time>
      </trkpt>
      <trkpt lat="45.35747" lon="4.64913">
        <ele>628</ele>
        <time>2020-12-26T15:40:10.000Z</time>
      </trkpt>
      <trkpt lat="45.35751" lon="4.64889">
        <ele>629.2</ele>
        <time>2020-12-26T15:40:04.000Z</time>
      </trkpt>
      <trkpt lat="45.35751" lon="4.64886">
        <ele>629.3</ele>
        <time>2020-12-26T15:40:03.000Z</time>
      </trkpt>
      <trkpt lat="45.3575" lon="4.64884">
        <ele>629.6</ele>
        <time>2020-12-26T15:39:57.000Z</time>
      </trkpt>
      <trkpt lat="45.3575" lon="4.64874">
        <ele>630</ele>
        <time>2020-12-26T15:39:54.000Z</time>
      </trkpt>
      <trkpt lat="45.35749" lon="4.64859">
        <ele>630.7</ele>
        <time>2020-12-26T15:39:51.000Z</time>
      </trkpt>
      <trkpt lat="45.35741" lon="4.64835">
        <ele>631.6</ele>
        <time>2020-12-26T15:39:46.000Z</time>
      </trkpt>
      <trkpt lat="45.35733" lon="4.64822">
        <ele>631.6</ele>
        <time>2020-12-26T15:39:41.000Z</time>
      </trkpt>
      <trkpt lat="45.35731" lon="4.6482">
        <ele>631.6</ele>
        <time>2020-12-26T15:39:32.000Z</time>
      </trkpt>
      <trkpt lat="45.35729" lon="4.64814">
        <ele>631.7</ele>
        <time>2020-12-26T15:39:28.000Z</time>
      </trkpt>
      <trkpt lat="45.35725" lon="4.64802">
        <ele>631.9</ele>
        <time>2020-12-26T15:39:23.000Z</time>
      </trkpt>
      <trkpt lat="45.35724" lon="4.648">
        <ele>631.9</ele>
        <time>2020-12-26T15:39:13.000Z</time>
      </trkpt>
      <trkpt lat="45.35721" lon="4.64795">
        <ele>631.9</ele>
        <time>2020-12-26T15:39:09.000Z</time>
      </trkpt>
      <trkpt lat="45.35717" lon="4.64786">
        <ele>631.9</ele>
        <time>2020-12-26T15:39:05.000Z</time>
      </trkpt>
      <trkpt lat="45.35714" lon="4.6478">
        <ele>632</ele>
        <time>2020-12-26T15:39:03.000Z</time>
      </trkpt>
      <trkpt lat="45.35707" lon="4.64767">
        <ele>632.1</ele>
        <time>2020-12-26T15:38:58.000Z</time>
      </trkpt>
      <trkpt lat="45.35704" lon="4.64761">
        <ele>632.1</ele>
        <time>2020-12-26T15:38:19.000Z</time>
      </trkpt>
      <trkpt lat="45.357" lon="4.64753">
        <ele>632.1</ele>
        <time>2020-12-26T15:38:16.000Z</time>
      </trkpt>
      <trkpt lat="45.35695" lon="4.64742">
        <ele>632.7</ele>
        <time>2020-12-26T15:38:13.000Z</time>
      </trkpt>
      <trkpt lat="45.35692" lon="4.64735">
        <ele>633.2</ele>
        <time>2020-12-26T15:38:11.000Z</time>
      </trkpt>
      <trkpt lat="45.35684" lon="4.64724">
        <ele>633.8</ele>
        <time>2020-12-26T15:38:08.000Z</time>
      </trkpt>
      <trkpt lat="45.35674" lon="4.64713">
        <ele>634.4</ele>
        <time>2020-12-26T15:38:05.000Z</time>
      </trkpt>
      <trkpt lat="45.3567" lon="4.64708">
        <ele>634.7</ele>
        <time>2020-12-26T15:38:04.000Z</time>
      </trkpt>
      <trkpt lat="45.35666" lon="4.64702">
        <ele>634.9</ele>
        <time>2020-12-26T15:38:03.000Z</time>
      </trkpt>
      <trkpt lat="45.35663" lon="4.64696">
        <ele>635</ele>
        <time>2020-12-26T15:38:02.000Z</time>
      </trkpt>
      <trkpt lat="45.35655" lon="4.64684">
        <ele>635.1</ele>
        <time>2020-12-26T15:38:00.000Z</time>
      </trkpt>
      <trkpt lat="45.35647" lon="4.64671">
        <ele>635.4</ele>
        <time>2020-12-26T15:37:58.000Z</time>
      </trkpt>
      <trkpt lat="45.35643" lon="4.64663">
        <ele>635.9</ele>
        <time>2020-12-26T15:37:57.000Z</time>
      </trkpt>
      <trkpt lat="45.35634" lon="4.64642">
        <ele>637.9</ele>
        <time>2020-12-26T15:37:54.000Z</time>
      </trkpt>
      <trkpt lat="45.35633" lon="4.64634">
        <ele>638.9</ele>
        <time>2020-12-26T15:37:53.000Z</time>
      </trkpt>
      <trkpt lat="45.35631" lon="4.64619">
        <ele>640.7</ele>
        <time>2020-12-26T15:37:51.000Z</time>
      </trkpt>
      <trkpt lat="45.35629" lon="4.64612">
        <ele>641.4</ele>
        <time>2020-12-26T15:37:50.000Z</time>
      </trkpt>
      <trkpt lat="45.35618" lon="4.64582">
        <ele>644.5</ele>
        <time>2020-12-26T15:37:45.000Z</time>
      </trkpt>
      <trkpt lat="45.35607" lon="4.64552">
        <ele>647.2</ele>
        <time>2020-12-26T15:37:39.000Z</time>
      </trkpt>
      <trkpt lat="45.35605" lon="4.64547">
        <ele>647.5</ele>
        <time>2020-12-26T15:37:38.000Z</time>
      </trkpt>
      <trkpt lat="45.35597" lon="4.64525">
        <ele>649.2</ele>
        <time>2020-12-26T15:37:34.000Z</time>
      </trkpt>
      <trkpt lat="45.35592" lon="4.64506">
        <ele>650.7</ele>
        <time>2020-12-26T15:37:31.000Z</time>
      </trkpt>
      <trkpt lat="45.35585" lon="4.64452">
        <ele>649.7</ele>
        <time>2020-12-26T15:37:22.000Z</time>
      </trkpt>
      <trkpt lat="45.35585" lon="4.64407">
        <ele>648.9</ele>
        <time>2020-12-26T15:37:14.000Z</time>
      </trkpt>
      <trkpt lat="45.35585" lon="4.64359">
        <ele>647.3</ele>
        <time>2020-12-26T15:37:06.000Z</time>
      </trkpt>
      <trkpt lat="45.35587" lon="4.64324">
        <ele>646.6</ele>
        <time>2020-12-26T15:37:00.000Z</time>
      </trkpt>
      <trkpt lat="45.35588" lon="4.64288">
        <ele>647</ele>
        <time>2020-12-26T15:36:53.000Z</time>
      </trkpt>
      <trkpt lat="45.35589" lon="4.6426">
        <ele>647.3</ele>
        <time>2020-12-26T15:36:47.000Z</time>
      </trkpt>
      <trkpt lat="45.3559" lon="4.64252">
        <ele>647.4</ele>
        <time>2020-12-26T15:36:45.000Z</time>
      </trkpt>
      <trkpt lat="45.35592" lon="4.64227">
        <ele>648.3</ele>
        <time>2020-12-26T15:36:39.000Z</time>
      </trkpt>
      <trkpt lat="45.35596" lon="4.642">
        <ele>649.5</ele>
        <time>2020-12-26T15:36:32.000Z</time>
      </trkpt>
      <trkpt lat="45.35596" lon="4.64197">
        <ele>649.6</ele>
        <time>2020-12-26T15:36:31.000Z</time>
      </trkpt>
      <trkpt lat="45.35598" lon="4.64184">
        <ele>650.1</ele>
        <time>2020-12-26T15:36:26.000Z</time>
      </trkpt>
      <trkpt lat="45.356" lon="4.64172">
        <ele>650.6</ele>
        <time>2020-12-26T15:36:20.000Z</time>
      </trkpt>
      <trkpt lat="45.356" lon="4.6417">
        <ele>650.7</ele>
        <time>2020-12-26T15:36:19.000Z</time>
      </trkpt>
      <trkpt lat="45.356" lon="4.64164">
        <ele>650.9</ele>
        <time>2020-12-26T15:36:05.000Z</time>
      </trkpt>
      <trkpt lat="45.356" lon="4.64162">
        <ele>651</ele>
        <time>2020-12-26T15:36:04.000Z</time>
      </trkpt>
      <trkpt lat="45.35605" lon="4.64147">
        <ele>651.9</ele>
        <time>2020-12-26T15:36:00.000Z</time>
      </trkpt>
      <trkpt lat="45.35609" lon="4.6413">
        <ele>652.7</ele>
        <time>2020-12-26T15:35:57.000Z</time>
      </trkpt>
      <trkpt lat="45.35611" lon="4.64124">
        <ele>653</ele>
        <time>2020-12-26T15:35:56.000Z</time>
      </trkpt>
      <trkpt lat="45.35614" lon="4.64106">
        <ele>653.8</ele>
        <time>2020-12-26T15:35:53.000Z</time>
      </trkpt>
      <trkpt lat="45.35615" lon="4.641">
        <ele>654.1</ele>
        <time>2020-12-26T15:35:52.000Z</time>
      </trkpt>
      <trkpt lat="45.35624" lon="4.64079">
        <ele>655.3</ele>
        <time>2020-12-26T15:35:47.000Z</time>
      </trkpt>
      <trkpt lat="45.35632" lon="4.64064">
        <ele>656.2</ele>
        <time>2020-12-26T15:35:42.000Z</time>
      </trkpt>
      <trkpt lat="45.35634" lon="4.64062">
        <ele>656.3</ele>
        <time>2020-12-26T15:35:41.000Z</time>
      </trkpt>
      <trkpt lat="45.35638" lon="4.6406">
        <ele>656.5</ele>
        <time>2020-12-26T15:35:28.000Z</time>
      </trkpt>
      <trkpt lat="45.35647" lon="4.64052">
        <ele>656.8</ele>
        <time>2020-12-26T15:35:23.000Z</time>
      </trkpt>
      <trkpt lat="45.35658" lon="4.64039">
        <ele>657.2</ele>
        <time>2020-12-26T15:35:19.000Z</time>
      </trkpt>
      <trkpt lat="45.35663" lon="4.64033">
        <ele>657.3</ele>
        <time>2020-12-26T15:35:17.000Z</time>
      </trkpt>
      <trkpt lat="45.35668" lon="4.64026">
        <ele>657.4</ele>
        <time>2020-12-26T15:35:15.000Z</time>
      </trkpt>
      <trkpt lat="45.35675" lon="4.64017">
        <ele>658</ele>
        <time>2020-12-26T15:35:13.000Z</time>
      </trkpt>
      <trkpt lat="45.35679" lon="4.64012">
        <ele>658.3</ele>
        <time>2020-12-26T15:35:12.000Z</time>
      </trkpt>
      <trkpt lat="45.35683" lon="4.64006">
        <ele>658.7</ele>
        <time>2020-12-26T15:35:11.000Z</time>
      </trkpt>
      <trkpt lat="45.35687" lon="4.64">
        <ele>659.2</ele>
        <time>2020-12-26T15:35:10.000Z</time>
      </trkpt>
      <trkpt lat="45.35692" lon="4.63994">
        <ele>659.9</ele>
        <time>2020-12-26T15:35:09.000Z</time>
      </trkpt>
      <trkpt lat="45.35697" lon="4.63989">
        <ele>660.5</ele>
        <time>2020-12-26T15:35:08.000Z</time>
      </trkpt>
      <trkpt lat="45.3571" lon="4.63983">
        <ele>661.6</ele>
        <time>2020-12-26T15:35:06.000Z</time>
      </trkpt>
      <trkpt lat="45.35724" lon="4.6398">
        <ele>662.6</ele>
        <time>2020-12-26T15:35:04.000Z</time>
      </trkpt>
      <trkpt lat="45.3573" lon="4.63979">
        <ele>663.1</ele>
        <time>2020-12-26T15:35:03.000Z</time>
      </trkpt>
      <trkpt lat="45.35737" lon="4.63978">
        <ele>663.5</ele>
        <time>2020-12-26T15:35:02.000Z</time>
      </trkpt>
      <trkpt lat="45.35742" lon="4.63977">
        <ele>663.9</ele>
        <time>2020-12-26T15:35:01.000Z</time>
      </trkpt>
      <trkpt lat="45.35748" lon="4.63977">
        <ele>664.2</ele>
        <time>2020-12-26T15:35:00.000Z</time>
      </trkpt>
      <trkpt lat="45.35753" lon="4.63977">
        <ele>665</ele>
        <time>2020-12-26T15:34:59.000Z</time>
      </trkpt>
      <trkpt lat="45.35763" lon="4.63975">
        <ele>667.4</ele>
        <time>2020-12-26T15:34:57.000Z</time>
      </trkpt>
      <trkpt lat="45.35774" lon="4.63972">
        <ele>669.9</ele>
        <time>2020-12-26T15:34:55.000Z</time>
      </trkpt>
      <trkpt lat="45.3578" lon="4.63971">
        <ele>671.1</ele>
        <time>2020-12-26T15:34:54.000Z</time>
      </trkpt>
      <trkpt lat="45.358" lon="4.63967">
        <ele>675.7</ele>
        <time>2020-12-26T15:34:50.000Z</time>
      </trkpt>
      <trkpt lat="45.35806" lon="4.63966">
        <ele>677.1</ele>
        <time>2020-12-26T15:34:48.000Z</time>
      </trkpt>
      <trkpt lat="45.35812" lon="4.63964">
        <ele>678.2</ele>
        <time>2020-12-26T15:30:19.000Z</time>
      </trkpt>
      <trkpt lat="45.35819" lon="4.63964">
        <ele>679.9</ele>
        <time>2020-12-26T15:29:37.000Z</time>
      </trkpt>
      <trkpt lat="45.35821" lon="4.63963">
        <ele>680.3</ele>
        <time>2020-12-26T15:29:35.000Z</time>
      </trkpt>
      <trkpt lat="45.35824" lon="4.63961">
        <ele>680.9</ele>
        <time>2020-12-26T15:29:33.000Z</time>
      </trkpt>
      <trkpt lat="45.35827" lon="4.63959">
        <ele>681.7</ele>
        <time>2020-12-26T15:29:31.000Z</time>
      </trkpt>
      <trkpt lat="45.3583" lon="4.63958">
        <ele>682.4</ele>
        <time>2020-12-26T15:29:29.000Z</time>
      </trkpt>
      <trkpt lat="45.35834" lon="4.63957">
        <ele>683.3</ele>
        <time>2020-12-26T15:29:27.000Z</time>
      </trkpt>
      <trkpt lat="45.35838" lon="4.63954">
        <ele>684.4</ele>
        <time>2020-12-26T15:29:25.000Z</time>
      </trkpt>
      <trkpt lat="45.35843" lon="4.63952">
        <ele>685.7</ele>
        <time>2020-12-26T15:29:23.000Z</time>
      </trkpt>
      <trkpt lat="45.35848" lon="4.6395">
        <ele>687.2</ele>
        <time>2020-12-26T15:29:21.000Z</time>
      </trkpt>
      <trkpt lat="45.35853" lon="4.63947">
        <ele>688.8</ele>
        <time>2020-12-26T15:29:19.000Z</time>
      </trkpt>
      <trkpt lat="45.35856" lon="4.63946">
        <ele>689.5</ele>
        <time>2020-12-26T15:29:18.000Z</time>
      </trkpt>
      <trkpt lat="45.35858" lon="4.63943">
        <ele>690.4</ele>
        <time>2020-12-26T15:29:16.000Z</time>
      </trkpt>
      <trkpt lat="45.35862" lon="4.63939">
        <ele>691.5</ele>
        <time>2020-12-26T15:29:14.000Z</time>
      </trkpt>
      <trkpt lat="45.35865" lon="4.63934">
        <ele>692.6</ele>
        <time>2020-12-26T15:29:12.000Z</time>
      </trkpt>
      <trkpt lat="45.35867" lon="4.63931">
        <ele>693.2</ele>
        <time>2020-12-26T15:29:11.000Z</time>
      </trkpt>
      <trkpt lat="45.3587" lon="4.63928">
        <ele>694.1</ele>
        <time>2020-12-26T15:29:10.000Z</time>
      </trkpt>
      <trkpt lat="45.35875" lon="4.6392">
        <ele>695.9</ele>
        <time>2020-12-26T15:29:08.000Z</time>
      </trkpt>
      <trkpt lat="45.35877" lon="4.63918">
        <ele>696.5</ele>
        <time>2020-12-26T15:29:07.000Z</time>
      </trkpt>
      <trkpt lat="45.35879" lon="4.63915">
        <ele>697</ele>
        <time>2020-12-26T15:29:06.000Z</time>
      </trkpt>
      <trkpt lat="45.35892" lon="4.639">
        <ele>701.5</ele>
        <time>2020-12-26T15:29:01.000Z</time>
      </trkpt>
      <trkpt lat="45.35897" lon="4.63896">
        <ele>703.2</ele>
        <time>2020-12-26T15:28:59.000Z</time>
      </trkpt>
      <trkpt lat="45.35899" lon="4.63894">
        <ele>703.6</ele>
        <time>2020-12-26T15:28:27.000Z</time>
      </trkpt>
      <trkpt lat="45.35899" lon="4.63893">
        <ele>703.8</ele>
        <time>2020-12-26T15:28:26.000Z</time>
      </trkpt>
      <trkpt lat="45.359" lon="4.6389">
        <ele>704.2</ele>
        <time>2020-12-26T15:28:25.000Z</time>
      </trkpt>
      <trkpt lat="45.35908" lon="4.63883">
        <ele>706.8</ele>
        <time>2020-12-26T15:28:23.000Z</time>
      </trkpt>
      <trkpt lat="45.35912" lon="4.6388">
        <ele>708</ele>
        <time>2020-12-26T15:28:22.000Z</time>
      </trkpt>
      <trkpt lat="45.35915" lon="4.63878">
        <ele>709</ele>
        <time>2020-12-26T15:28:21.000Z</time>
      </trkpt>
      <trkpt lat="45.35921" lon="4.63884">
        <ele>710</ele>
        <time>2020-12-26T15:28:19.000Z</time>
      </trkpt>
      <trkpt lat="45.35923" lon="4.63895">
        <ele>710</ele>
        <time>2020-12-26T15:28:17.000Z</time>
      </trkpt>
      <trkpt lat="45.35927" lon="4.63909">
        <ele>710</ele>
        <time>2020-12-26T15:28:15.000Z</time>
      </trkpt>
      <trkpt lat="45.35929" lon="4.63916">
        <ele>710</ele>
        <time>2020-12-26T15:28:14.000Z</time>
      </trkpt>
      <trkpt lat="45.35931" lon="4.63923">
        <ele>710.1</ele>
        <time>2020-12-26T15:28:13.000Z</time>
      </trkpt>
      <trkpt lat="45.35934" lon="4.63931">
        <ele>710.1</ele>
        <time>2020-12-26T15:28:12.000Z</time>
      </trkpt>
      <trkpt lat="45.35939" lon="4.63944">
        <ele>710.2</ele>
        <time>2020-12-26T15:28:10.000Z</time>
      </trkpt>
      <trkpt lat="45.35942" lon="4.63948">
        <ele>710.4</ele>
        <time>2020-12-26T15:28:09.000Z</time>
      </trkpt>
      <trkpt lat="45.35945" lon="4.63951">
        <ele>710.8</ele>
        <time>2020-12-26T15:28:08.000Z</time>
      </trkpt>
      <trkpt lat="45.35949" lon="4.63952">
        <ele>711.3</ele>
        <time>2020-12-26T15:28:07.000Z</time>
      </trkpt>
      <trkpt lat="45.35953" lon="4.63951">
        <ele>711.9</ele>
        <time>2020-12-26T15:28:06.000Z</time>
      </trkpt>
      <trkpt lat="45.35957" lon="4.63948">
        <ele>712.7</ele>
        <time>2020-12-26T15:28:05.000Z</time>
      </trkpt>
      <trkpt lat="45.35961" lon="4.63943">
        <ele>713.7</ele>
        <time>2020-12-26T15:28:04.000Z</time>
      </trkpt>
      <trkpt lat="45.35966" lon="4.63937">
        <ele>714.9</ele>
        <time>2020-12-26T15:28:03.000Z</time>
      </trkpt>
      <trkpt lat="45.35971" lon="4.63929">
        <ele>716.2</ele>
        <time>2020-12-26T15:28:02.000Z</time>
      </trkpt>
      <trkpt lat="45.35981" lon="4.63916">
        <ele>718.8</ele>
        <time>2020-12-26T15:28:00.000Z</time>
      </trkpt>
      <trkpt lat="45.35986" lon="4.63913">
        <ele>719.9</ele>
        <time>2020-12-26T15:27:59.000Z</time>
      </trkpt>
      <trkpt lat="45.36" lon="4.63908">
        <ele>722.5</ele>
        <time>2020-12-26T15:27:56.000Z</time>
      </trkpt>
      <trkpt lat="45.36005" lon="4.63907">
        <ele>722.8</ele>
        <time>2020-12-26T15:27:55.000Z</time>
      </trkpt>
      <trkpt lat="45.36013" lon="4.63908">
        <ele>723.1</ele>
        <time>2020-12-26T15:27:53.000Z</time>
      </trkpt>
      <trkpt lat="45.36036" lon="4.6391">
        <ele>724</ele>
        <time>2020-12-26T15:27:46.000Z</time>
      </trkpt>
      <trkpt lat="45.36061" lon="4.63913">
        <ele>725.1</ele>
        <time>2020-12-26T15:27:38.000Z</time>
      </trkpt>
      <trkpt lat="45.36068" lon="4.63915">
        <ele>725.3</ele>
        <time>2020-12-26T15:27:36.000Z</time>
      </trkpt>
      <trkpt lat="45.36083" lon="4.63911">
        <ele>726.1</ele>
        <time>2020-12-26T15:27:31.000Z</time>
      </trkpt>
      <trkpt lat="45.36107" lon="4.63907">
        <ele>724.8</ele>
        <time>2020-12-26T15:27:23.000Z</time>
      </trkpt>
      <trkpt lat="45.3611" lon="4.63907">
        <ele>724.7</ele>
        <time>2020-12-26T15:27:22.000Z</time>
      </trkpt>
      <trkpt lat="45.36127" lon="4.63909">
        <ele>723.5</ele>
        <time>2020-12-26T15:27:16.000Z</time>
      </trkpt>
      <trkpt lat="45.3613" lon="4.6391">
        <ele>723.4</ele>
        <time>2020-12-26T15:27:15.000Z</time>
      </trkpt>
      <trkpt lat="45.36146" lon="4.63913">
        <ele>722.3</ele>
        <time>2020-12-26T15:27:09.000Z</time>
      </trkpt>
      <trkpt lat="45.3616" lon="4.63904">
        <ele>721.7</ele>
        <time>2020-12-26T15:27:04.000Z</time>
      </trkpt>
      <trkpt lat="45.36167" lon="4.63882">
        <ele>721.7</ele>
        <time>2020-12-26T15:26:58.000Z</time>
      </trkpt>
      <trkpt lat="45.36171" lon="4.63865">
        <ele>721.3</ele>
        <time>2020-12-26T15:26:53.000Z</time>
      </trkpt>
      <trkpt lat="45.36168" lon="4.63837">
        <ele>722.7</ele>
        <time>2020-12-26T15:26:47.000Z</time>
      </trkpt>
      <trkpt lat="45.36162" lon="4.63814">
        <ele>723.7</ele>
        <time>2020-12-26T15:26:41.000Z</time>
      </trkpt>
      <trkpt lat="45.36159" lon="4.63796">
        <ele>724.3</ele>
        <time>2020-12-26T15:26:35.000Z</time>
      </trkpt>
      <trkpt lat="45.36158" lon="4.63779">
        <ele>724.8</ele>
        <time>2020-12-26T15:26:29.000Z</time>
      </trkpt>
      <trkpt lat="45.36163" lon="4.63754">
        <ele>724.5</ele>
        <time>2020-12-26T15:26:22.000Z</time>
      </trkpt>
      <trkpt lat="45.36164" lon="4.63751">
        <ele>724.4</ele>
        <time>2020-12-26T15:26:21.000Z</time>
      </trkpt>
      <trkpt lat="45.3617" lon="4.63732">
        <ele>725</ele>
        <time>2020-12-26T15:26:15.000Z</time>
      </trkpt>
      <trkpt lat="45.36174" lon="4.63722">
        <ele>725.1</ele>
        <time>2020-12-26T15:26:12.000Z</time>
      </trkpt>
      <trkpt lat="45.36179" lon="4.63715">
        <ele>724.6</ele>
        <time>2020-12-26T15:26:09.000Z</time>
      </trkpt>
      <trkpt lat="45.36181" lon="4.63713">
        <ele>724.4</ele>
        <time>2020-12-26T15:26:08.000Z</time>
      </trkpt>
      <trkpt lat="45.36189" lon="4.63711">
        <ele>722.7</ele>
        <time>2020-12-26T15:26:04.000Z</time>
      </trkpt>
      <trkpt lat="45.36193" lon="4.6371">
        <ele>721.9</ele>
        <time>2020-12-26T15:26:02.000Z</time>
      </trkpt>
      <trkpt lat="45.36205" lon="4.63705">
        <ele>719.8</ele>
        <time>2020-12-26T15:25:57.000Z</time>
      </trkpt>
      <trkpt lat="45.36216" lon="4.63677">
        <ele>719.5</ele>
        <time>2020-12-26T15:25:49.000Z</time>
      </trkpt>
      <trkpt lat="45.36223" lon="4.6365">
        <ele>720.7</ele>
        <time>2020-12-26T15:25:42.000Z</time>
      </trkpt>
      <trkpt lat="45.36232" lon="4.63634">
        <ele>720.9</ele>
        <time>2020-12-26T15:25:36.000Z</time>
      </trkpt>
      <trkpt lat="45.36233" lon="4.63632">
        <ele>720.8</ele>
        <time>2020-12-26T15:25:35.000Z</time>
      </trkpt>
      <trkpt lat="45.36242" lon="4.63619">
        <ele>720.7</ele>
        <time>2020-12-26T15:25:29.000Z</time>
      </trkpt>
      <trkpt lat="45.36244" lon="4.63617">
        <ele>720.5</ele>
        <time>2020-12-26T15:25:28.000Z</time>
      </trkpt>
      <trkpt lat="45.36255" lon="4.63606">
        <ele>719.8</ele>
        <time>2020-12-26T15:25:22.000Z</time>
      </trkpt>
      <trkpt lat="45.36264" lon="4.63594">
        <ele>719.6</ele>
        <time>2020-12-26T15:25:16.000Z</time>
      </trkpt>
      <trkpt lat="45.36266" lon="4.63592">
        <ele>719.6</ele>
        <time>2020-12-26T15:25:15.000Z</time>
      </trkpt>
      <trkpt lat="45.36276" lon="4.63579">
        <ele>719.3</ele>
        <time>2020-12-26T15:25:09.000Z</time>
      </trkpt>
      <trkpt lat="45.36286" lon="4.63569">
        <ele>718.7</ele>
        <time>2020-12-26T15:25:01.000Z</time>
      </trkpt>
      <trkpt lat="45.36289" lon="4.63567">
        <ele>718.4</ele>
        <time>2020-12-26T15:24:59.000Z</time>
      </trkpt>
      <trkpt lat="45.36295" lon="4.63563">
        <ele>717.7</ele>
        <time>2020-12-26T15:24:54.000Z</time>
      </trkpt>
      <trkpt lat="45.36301" lon="4.63559">
        <ele>716.7</ele>
        <time>2020-12-26T15:24:49.000Z</time>
      </trkpt>
      <trkpt lat="45.36308" lon="4.63556">
        <ele>715.7</ele>
        <time>2020-12-26T15:24:46.000Z</time>
      </trkpt>
      <trkpt lat="45.36317" lon="4.63554">
        <ele>713.7</ele>
        <time>2020-12-26T15:24:41.000Z</time>
      </trkpt>
      <trkpt lat="45.36324" lon="4.63553">
        <ele>712.3</ele>
        <time>2020-12-26T15:24:38.000Z</time>
      </trkpt>
      <trkpt lat="45.36329" lon="4.63554">
        <ele>711.3</ele>
        <time>2020-12-26T15:24:36.000Z</time>
      </trkpt>
      <trkpt lat="45.36342" lon="4.6355">
        <ele>710.3</ele>
        <time>2020-12-26T15:24:11.000Z</time>
      </trkpt>
      <trkpt lat="45.36343" lon="4.63549">
        <ele>710.3</ele>
        <time>2020-12-26T15:24:10.000Z</time>
      </trkpt>
      <trkpt lat="45.36346" lon="4.63548">
        <ele>710.3</ele>
        <time>2020-12-26T15:24:06.000Z</time>
      </trkpt>
      <trkpt lat="45.36348" lon="4.63544">
        <ele>710.7</ele>
        <time>2020-12-26T15:24:04.000Z</time>
      </trkpt>
      <trkpt lat="45.36348" lon="4.63537">
        <ele>711.5</ele>
        <time>2020-12-26T15:24:02.000Z</time>
      </trkpt>
      <trkpt lat="45.36348" lon="4.63534">
        <ele>711.8</ele>
        <time>2020-12-26T15:24:01.000Z</time>
      </trkpt>
      <trkpt lat="45.36348" lon="4.6353">
        <ele>712.3</ele>
        <time>2020-12-26T15:24:00.000Z</time>
      </trkpt>
      <trkpt lat="45.36348" lon="4.63521">
        <ele>713.3</ele>
        <time>2020-12-26T15:23:58.000Z</time>
      </trkpt>
      <trkpt lat="45.36347" lon="4.63517">
        <ele>713.8</ele>
        <time>2020-12-26T15:23:57.000Z</time>
      </trkpt>
      <trkpt lat="45.36345" lon="4.63513">
        <ele>714.3</ele>
        <time>2020-12-26T15:23:56.000Z</time>
      </trkpt>
      <trkpt lat="45.36344" lon="4.6351">
        <ele>714.6</ele>
        <time>2020-12-26T15:23:55.000Z</time>
      </trkpt>
      <trkpt lat="45.3634" lon="4.63508">
        <ele>715</ele>
        <time>2020-12-26T15:23:54.000Z</time>
      </trkpt>
      <trkpt lat="45.36337" lon="4.63504">
        <ele>715.4</ele>
        <time>2020-12-26T15:23:53.000Z</time>
      </trkpt>
      <trkpt lat="45.36334" lon="4.63501">
        <ele>715.8</ele>
        <time>2020-12-26T15:23:52.000Z</time>
      </trkpt>
      <trkpt lat="45.36332" lon="4.63499">
        <ele>716.4</ele>
        <time>2020-12-26T15:23:51.000Z</time>
      </trkpt>
      <trkpt lat="45.36332" lon="4.63496">
        <ele>716.9</ele>
        <time>2020-12-26T15:23:50.000Z</time>
      </trkpt>
      <trkpt lat="45.36329" lon="4.63494">
        <ele>717.8</ele>
        <time>2020-12-26T15:23:49.000Z</time>
      </trkpt>
      <trkpt lat="45.36326" lon="4.63491">
        <ele>719.1</ele>
        <time>2020-12-26T15:23:48.000Z</time>
      </trkpt>
      <trkpt lat="45.36323" lon="4.63487">
        <ele>720.3</ele>
        <time>2020-12-26T15:23:47.000Z</time>
      </trkpt>
      <trkpt lat="45.36319" lon="4.63483">
        <ele>721.7</ele>
        <time>2020-12-26T15:23:46.000Z</time>
      </trkpt>
      <trkpt lat="45.36311" lon="4.63474">
        <ele>725</ele>
        <time>2020-12-26T15:23:44.000Z</time>
      </trkpt>
      <trkpt lat="45.36306" lon="4.6347">
        <ele>726.7</ele>
        <time>2020-12-26T15:23:43.000Z</time>
      </trkpt>
      <trkpt lat="45.36302" lon="4.63466">
        <ele>728.3</ele>
        <time>2020-12-26T15:23:42.000Z</time>
      </trkpt>
      <trkpt lat="45.36293" lon="4.63458">
        <ele>731.5</ele>
        <time>2020-12-26T15:23:40.000Z</time>
      </trkpt>
      <trkpt lat="45.36289" lon="4.63455">
        <ele>732.8</ele>
        <time>2020-12-26T15:23:39.000Z</time>
      </trkpt>
      <trkpt lat="45.36285" lon="4.63452">
        <ele>734.1</ele>
        <time>2020-12-26T15:23:38.000Z</time>
      </trkpt>
      <trkpt lat="45.36282" lon="4.6345">
        <ele>735.3</ele>
        <time>2020-12-26T15:23:37.000Z</time>
      </trkpt>
      <trkpt lat="45.36279" lon="4.63447">
        <ele>736.4</ele>
        <time>2020-12-26T15:23:36.000Z</time>
      </trkpt>
      <trkpt lat="45.36275" lon="4.63444">
        <ele>737.6</ele>
        <time>2020-12-26T15:23:35.000Z</time>
      </trkpt>
      <trkpt lat="45.36272" lon="4.63442">
        <ele>738.8</ele>
        <time>2020-12-26T15:23:34.000Z</time>
      </trkpt>
      <trkpt lat="45.36262" lon="4.63436">
        <ele>741.8</ele>
        <time>2020-12-26T15:23:32.000Z</time>
      </trkpt>
      <trkpt lat="45.36255" lon="4.63429">
        <ele>744.5</ele>
        <time>2020-12-26T15:23:30.000Z</time>
      </trkpt>
      <trkpt lat="45.36248" lon="4.63424">
        <ele>746.7</ele>
        <time>2020-12-26T15:23:28.000Z</time>
      </trkpt>
      <trkpt lat="45.36245" lon="4.63422">
        <ele>747.7</ele>
        <time>2020-12-26T15:23:27.000Z</time>
      </trkpt>
      <trkpt lat="45.36243" lon="4.63419">
        <ele>748.7</ele>
        <time>2020-12-26T15:23:26.000Z</time>
      </trkpt>
      <trkpt lat="45.36241" lon="4.63416">
        <ele>749.5</ele>
        <time>2020-12-26T15:23:25.000Z</time>
      </trkpt>
      <trkpt lat="45.36238" lon="4.63411">
        <ele>750.8</ele>
        <time>2020-12-26T15:23:23.000Z</time>
      </trkpt>
      <trkpt lat="45.36237" lon="4.63397">
        <ele>752.4</ele>
        <time>2020-12-26T15:23:20.000Z</time>
      </trkpt>
      <trkpt lat="45.36237" lon="4.63391">
        <ele>753</ele>
        <time>2020-12-26T15:23:18.000Z</time>
      </trkpt>
      <trkpt lat="45.36237" lon="4.63388">
        <ele>753.3</ele>
        <time>2020-12-26T15:23:17.000Z</time>
      </trkpt>
      <trkpt lat="45.36237" lon="4.63386">
        <ele>753.4</ele>
        <time>2020-12-26T15:23:16.000Z</time>
      </trkpt>
      <trkpt lat="45.36237" lon="4.63383">
        <ele>753.8</ele>
        <time>2020-12-26T15:23:15.000Z</time>
      </trkpt>
      <trkpt lat="45.36236" lon="4.63379">
        <ele>754.3</ele>
        <time>2020-12-26T15:23:14.000Z</time>
      </trkpt>
      <trkpt lat="45.36235" lon="4.63374">
        <ele>755.2</ele>
        <time>2020-12-26T15:23:13.000Z</time>
      </trkpt>
      <trkpt lat="45.36234" lon="4.63367">
        <ele>756.1</ele>
        <time>2020-12-26T15:23:12.000Z</time>
      </trkpt>
      <trkpt lat="45.36232" lon="4.6336">
        <ele>757.3</ele>
        <time>2020-12-26T15:23:11.000Z</time>
      </trkpt>
      <trkpt lat="45.3623" lon="4.63353">
        <ele>758.7</ele>
        <time>2020-12-26T15:23:10.000Z</time>
      </trkpt>
      <trkpt lat="45.36228" lon="4.63344">
        <ele>760.2</ele>
        <time>2020-12-26T15:23:09.000Z</time>
      </trkpt>
      <trkpt lat="45.36225" lon="4.63334">
        <ele>761.9</ele>
        <time>2020-12-26T15:23:08.000Z</time>
      </trkpt>
      <trkpt lat="45.36223" lon="4.63324">
        <ele>763.8</ele>
        <time>2020-12-26T15:23:07.000Z</time>
      </trkpt>
      <trkpt lat="45.36222" lon="4.63314">
        <ele>765.5</ele>
        <time>2020-12-26T15:23:06.000Z</time>
      </trkpt>
      <trkpt lat="45.3622" lon="4.63305">
        <ele>767</ele>
        <time>2020-12-26T15:23:05.000Z</time>
      </trkpt>
      <trkpt lat="45.36218" lon="4.6329">
        <ele>769.7</ele>
        <time>2020-12-26T15:23:03.000Z</time>
      </trkpt>
      <trkpt lat="45.36218" lon="4.63271">
        <ele>771.8</ele>
        <time>2020-12-26T15:23:01.000Z</time>
      </trkpt>
      <trkpt lat="45.36219" lon="4.63254">
        <ele>773.6</ele>
        <time>2020-12-26T15:22:59.000Z</time>
      </trkpt>
      <trkpt lat="45.3622" lon="4.63237">
        <ele>775</ele>
        <time>2020-12-26T15:22:57.000Z</time>
      </trkpt>
      <trkpt lat="45.3622" lon="4.63228">
        <ele>775.9</ele>
        <time>2020-12-26T15:22:56.000Z</time>
      </trkpt>
      <trkpt lat="45.3622" lon="4.63218">
        <ele>776.7</ele>
        <time>2020-12-26T15:22:55.000Z</time>
      </trkpt>
      <trkpt lat="45.3622" lon="4.63208">
        <ele>777.7</ele>
        <time>2020-12-26T15:22:54.000Z</time>
      </trkpt>
      <trkpt lat="45.3622" lon="4.632">
        <ele>778.5</ele>
        <time>2020-12-26T15:22:53.000Z</time>
      </trkpt>
      <trkpt lat="45.3622" lon="4.63192">
        <ele>779.4</ele>
        <time>2020-12-26T15:22:52.000Z</time>
      </trkpt>
      <trkpt lat="45.3622" lon="4.63186">
        <ele>779.8</ele>
        <time>2020-12-26T15:22:51.000Z</time>
      </trkpt>
      <trkpt lat="45.36221" lon="4.63179">
        <ele>780.2</ele>
        <time>2020-12-26T15:22:50.000Z</time>
      </trkpt>
      <trkpt lat="45.36223" lon="4.63168">
        <ele>780.8</ele>
        <time>2020-12-26T15:22:48.000Z</time>
      </trkpt>
      <trkpt lat="45.36224" lon="4.63158">
        <ele>781.4</ele>
        <time>2020-12-26T15:22:46.000Z</time>
      </trkpt>
      <trkpt lat="45.36225" lon="4.63153">
        <ele>781.8</ele>
        <time>2020-12-26T15:22:45.000Z</time>
      </trkpt>
      <trkpt lat="45.36226" lon="4.63148">
        <ele>781.8</ele>
        <time>2020-12-26T15:22:44.000Z</time>
      </trkpt>
      <trkpt lat="45.36228" lon="4.63135">
        <ele>782.5</ele>
        <time>2020-12-26T15:22:42.000Z</time>
      </trkpt>
      <trkpt lat="45.3623" lon="4.63118">
        <ele>783.9</ele>
        <time>2020-12-26T15:22:40.000Z</time>
      </trkpt>
      <trkpt lat="45.36231" lon="4.6311">
        <ele>784.6</ele>
        <time>2020-12-26T15:22:39.000Z</time>
      </trkpt>
      <trkpt lat="45.36231" lon="4.63103">
        <ele>785.3</ele>
        <time>2020-12-26T15:22:38.000Z</time>
      </trkpt>
      <trkpt lat="45.36232" lon="4.63088">
        <ele>786.9</ele>
        <time>2020-12-26T15:22:36.000Z</time>
      </trkpt>
      <trkpt lat="45.36231" lon="4.63081">
        <ele>788</ele>
        <time>2020-12-26T15:22:35.000Z</time>
      </trkpt>
      <trkpt lat="45.3623" lon="4.63073">
        <ele>789.5</ele>
        <time>2020-12-26T15:22:34.000Z</time>
      </trkpt>
      <trkpt lat="45.36226" lon="4.63057">
        <ele>793.2</ele>
        <time>2020-12-26T15:22:32.000Z</time>
      </trkpt>
      <trkpt lat="45.36221" lon="4.63039">
        <ele>797.2</ele>
        <time>2020-12-26T15:22:30.000Z</time>
      </trkpt>
      <trkpt lat="45.36218" lon="4.6303">
        <ele>799.1</ele>
        <time>2020-12-26T15:22:29.000Z</time>
      </trkpt>
      <trkpt lat="45.36214" lon="4.63013">
        <ele>802.5</ele>
        <time>2020-12-26T15:22:27.000Z</time>
      </trkpt>
      <trkpt lat="45.36212" lon="4.63006">
        <ele>803.9</ele>
        <time>2020-12-26T15:22:26.000Z</time>
      </trkpt>
      <trkpt lat="45.36211" lon="4.63">
        <ele>805</ele>
        <time>2020-12-26T15:22:25.000Z</time>
      </trkpt>
      <trkpt lat="45.36212" lon="4.62987">
        <ele>805.9</ele>
        <time>2020-12-26T15:22:23.000Z</time>
      </trkpt>
      <trkpt lat="45.36213" lon="4.62974">
        <ele>806.8</ele>
        <time>2020-12-26T15:22:21.000Z</time>
      </trkpt>
      <trkpt lat="45.36214" lon="4.62963">
        <ele>807.6</ele>
        <time>2020-12-26T15:22:19.000Z</time>
      </trkpt>
      <trkpt lat="45.36216" lon="4.62953">
        <ele>808.2</ele>
        <time>2020-12-26T15:22:17.000Z</time>
      </trkpt>
      <trkpt lat="45.36216" lon="4.62949">
        <ele>808.6</ele>
        <time>2020-12-26T15:22:16.000Z</time>
      </trkpt>
      <trkpt lat="45.36215" lon="4.62944">
        <ele>809.1</ele>
        <time>2020-12-26T15:22:15.000Z</time>
      </trkpt>
      <trkpt lat="45.36215" lon="4.6294">
        <ele>809.5</ele>
        <time>2020-12-26T15:22:14.000Z</time>
      </trkpt>
      <trkpt lat="45.36215" lon="4.62935">
        <ele>810</ele>
        <time>2020-12-26T15:22:13.000Z</time>
      </trkpt>
      <trkpt lat="45.36215" lon="4.62929">
        <ele>810.6</ele>
        <time>2020-12-26T15:22:12.000Z</time>
      </trkpt>
      <trkpt lat="45.36214" lon="4.62923">
        <ele>811.3</ele>
        <time>2020-12-26T15:22:11.000Z</time>
      </trkpt>
      <trkpt lat="45.36212" lon="4.62911">
        <ele>813</ele>
        <time>2020-12-26T15:22:09.000Z</time>
      </trkpt>
      <trkpt lat="45.3621" lon="4.62906">
        <ele>813.9</ele>
        <time>2020-12-26T15:22:08.000Z</time>
      </trkpt>
      <trkpt lat="45.36208" lon="4.629">
        <ele>814.8</ele>
        <time>2020-12-26T15:22:07.000Z</time>
      </trkpt>
      <trkpt lat="45.36199" lon="4.62877">
        <ele>818.5</ele>
        <time>2020-12-26T15:22:03.000Z</time>
      </trkpt>
      <trkpt lat="45.36197" lon="4.62872">
        <ele>819.3</ele>
        <time>2020-12-26T15:22:02.000Z</time>
      </trkpt>
      <trkpt lat="45.36193" lon="4.62868">
        <ele>820.2</ele>
        <time>2020-12-26T15:21:53.000Z</time>
      </trkpt>
      <trkpt lat="45.36193" lon="4.62863">
        <ele>820.6</ele>
        <time>2020-12-26T15:21:51.000Z</time>
      </trkpt>
      <trkpt lat="45.36193" lon="4.62848">
        <ele>821.8</ele>
        <time>2020-12-26T15:21:49.000Z</time>
      </trkpt>
      <trkpt lat="45.36194" lon="4.62839">
        <ele>822.5</ele>
        <time>2020-12-26T15:21:48.000Z</time>
      </trkpt>
      <trkpt lat="45.36195" lon="4.6283">
        <ele>823.5</ele>
        <time>2020-12-26T15:21:47.000Z</time>
      </trkpt>
      <trkpt lat="45.36197" lon="4.62821">
        <ele>825</ele>
        <time>2020-12-26T15:21:46.000Z</time>
      </trkpt>
      <trkpt lat="45.36199" lon="4.62812">
        <ele>826.7</ele>
        <time>2020-12-26T15:21:45.000Z</time>
      </trkpt>
      <trkpt lat="45.36204" lon="4.62795">
        <ele>829.9</ele>
        <time>2020-12-26T15:21:43.000Z</time>
      </trkpt>
      <trkpt lat="45.36217" lon="4.62781">
        <ele>832.8</ele>
        <time>2020-12-26T15:21:40.000Z</time>
      </trkpt>
      <trkpt lat="45.36236" lon="4.62782">
        <ele>833</ele>
        <time>2020-12-26T15:21:35.000Z</time>
      </trkpt>
      <trkpt lat="45.36239" lon="4.62783">
        <ele>832.8</ele>
        <time>2020-12-26T15:21:34.000Z</time>
      </trkpt>
      <trkpt lat="45.36257" lon="4.62788">
        <ele>831.9</ele>
        <time>2020-12-26T15:21:29.000Z</time>
      </trkpt>
      <trkpt lat="45.3626" lon="4.62787">
        <ele>832.1</ele>
        <time>2020-12-26T15:21:28.000Z</time>
      </trkpt>
      <trkpt lat="45.36262" lon="4.62787">
        <ele>832.3</ele>
        <time>2020-12-26T15:21:20.000Z</time>
      </trkpt>
      <trkpt lat="45.36264" lon="4.62787">
        <ele>832.3</ele>
        <time>2020-12-26T15:21:18.000Z</time>
      </trkpt>
      <trkpt lat="45.36272" lon="4.62791">
        <ele>831.6</ele>
        <time>2020-12-26T15:21:12.000Z</time>
      </trkpt>
      <trkpt lat="45.36275" lon="4.62792">
        <ele>831.5</ele>
        <time>2020-12-26T15:21:10.000Z</time>
      </trkpt>
      <trkpt lat="45.36269" lon="4.62784">
        <ele>833.4</ele>
      </trkpt>
      <trkpt lat="45.36254" lon="4.62785">
        <ele>832.5</ele>
      </trkpt>
      <trkpt lat="45.36254" lon="4.62773">
        <ele>835.8</ele>
      </trkpt>
      <trkpt lat="45.36218" lon="4.62718">
        <ele>849.7</ele>
      </trkpt>
      <trkpt lat="45.36211" lon="4.6271">
        <ele>851.7</ele>
      </trkpt>
      <trkpt lat="45.36198" lon="4.62704">
        <ele>852.6</ele>
      </trkpt>
      <trkpt lat="45.36175" lon="4.62698">
        <ele>852.8</ele>
      </trkpt>
      <trkpt lat="45.36155" lon="4.62684">
        <ele>858.5</ele>
      </trkpt>
      <trkpt lat="45.36143" lon="4.62682">
        <ele>861</ele>
      </trkpt>
      <trkpt lat="45.36096" lon="4.62693">
        <ele>866.3</ele>
      </trkpt>
      <trkpt lat="45.36076" lon="4.62708">
        <ele>868.3</ele>
      </trkpt>
      <trkpt lat="45.36061" lon="4.62722">
        <ele>870.7</ele>
      </trkpt>
      <trkpt lat="45.36043" lon="4.62743">
        <ele>873.5</ele>
      </trkpt>
      <trkpt lat="45.36035" lon="4.62754">
        <ele>875</ele>
      </trkpt>
      <trkpt lat="45.3601" lon="4.62805">
        <ele>880.7</ele>
      </trkpt>
      <trkpt lat="45.35998" lon="4.62836">
        <ele>883.3</ele>
      </trkpt>
      <trkpt lat="45.3597" lon="4.62885">
        <ele>886.5</ele>
      </trkpt>
      <trkpt lat="45.35959" lon="4.62901">
        <ele>887.5</ele>
      </trkpt>
      <trkpt lat="45.35933" lon="4.62931">
        <ele>889.9</ele>
      </trkpt>
      <trkpt lat="45.35922" lon="4.62939">
        <ele>891.3</ele>
      </trkpt>
      <trkpt lat="45.35903" lon="4.62947">
        <ele>891</ele>
      </trkpt>
      <trkpt lat="45.35909" lon="4.62928">
        <ele>891.6</ele>
      </trkpt>
      <trkpt lat="45.35909" lon="4.62914">
        <ele>891.9</ele>
      </trkpt>
      <trkpt lat="45.35894" lon="4.62859">
        <ele>895</ele>
      </trkpt>
      <trkpt lat="45.35885" lon="4.62849">
        <ele>895.5</ele>
      </trkpt>
      <trkpt lat="45.35864" lon="4.62835">
        <ele>896.2</ele>
      </trkpt>
      <trkpt lat="45.35857" lon="4.62818">
        <ele>898.1</ele>
      </trkpt>
      <trkpt lat="45.35861" lon="4.62786">
        <ele>901.8</ele>
      </trkpt>
      <trkpt lat="45.35872" lon="4.6264">
        <ele>917.5</ele>
      </trkpt>
      <trkpt lat="45.35872" lon="4.62613">
        <ele>920.4</ele>
      </trkpt>
      <trkpt lat="45.35878" lon="4.62554">
        <ele>927.5</ele>
      </trkpt>
      <trkpt lat="45.35876" lon="4.62547">
        <ele>928.5</ele>
      </trkpt>
      <trkpt lat="45.35873" lon="4.62545">
        <ele>928.8</ele>
      </trkpt>
      <trkpt lat="45.3583" lon="4.62544">
        <ele>929.5</ele>
      </trkpt>
      <trkpt lat="45.35752" lon="4.62547">
        <ele>935.3</ele>
      </trkpt>
      <trkpt lat="45.35709" lon="4.6251">
        <ele>939</ele>
      </trkpt>
      <trkpt lat="45.35714" lon="4.62499">
        <ele>939.6</ele>
      </trkpt>
      <trkpt lat="45.35723" lon="4.62476">
        <ele>941.4</ele>
      </trkpt>
      <trkpt lat="45.35724" lon="4.6245">
        <ele>943.4</ele>
      </trkpt>
      <trkpt lat="45.3573" lon="4.62443">
        <ele>944.2</ele>
      </trkpt>
      <trkpt lat="45.35765" lon="4.62444">
        <ele>945.9</ele>
      </trkpt>
      <trkpt lat="45.35787" lon="4.62439">
        <ele>947.5</ele>
      </trkpt>
      <trkpt lat="45.35799" lon="4.62433">
        <ele>949.2</ele>
      </trkpt>
      <trkpt lat="45.35818" lon="4.62434">
        <ele>950</ele>
      </trkpt>
      <trkpt lat="45.35907" lon="4.62402">
        <ele>961.2</ele>
      </trkpt>
      <trkpt lat="45.35939" lon="4.62391">
        <ele>963.3</ele>
      </trkpt>
      <trkpt lat="45.35955" lon="4.62379">
        <ele>965.3</ele>
      </trkpt>
      <trkpt lat="45.35968" lon="4.62351">
        <ele>970.6</ele>
      </trkpt>
      <trkpt lat="45.35936" lon="4.62336">
        <ele>976</ele>
      </trkpt>
      <trkpt lat="45.35911" lon="4.62329">
        <ele>978.8</ele>
      </trkpt>
      <trkpt lat="45.35868" lon="4.62281">
        <ele>988.1</ele>
      </trkpt>
      <trkpt lat="45.35869" lon="4.62235">
        <ele>997.6</ele>
      </trkpt>
      <trkpt lat="45.35872" lon="4.62217">
        <ele>1001</ele>
      </trkpt>
      <trkpt lat="45.35866" lon="4.62168">
        <ele>1009.7</ele>
      </trkpt>
      <trkpt lat="45.35877" lon="4.6213">
        <ele>1016.6</ele>
      </trkpt>
      <trkpt lat="45.35894" lon="4.62029">
        <ele>1032.9</ele>
      </trkpt>
      <trkpt lat="45.35926" lon="4.61857">
        <ele>1059.5</ele>
      </trkpt>
      <trkpt lat="45.35935" lon="4.61796">
        <ele>1065.4</ele>
      </trkpt>
      <trkpt lat="45.35918" lon="4.61782">
        <ele>1065.2</ele>
        <extensions>
          <visugpx:TrkExtension xmlns:visugpx="https://www.visugpx.com/editgpx/">
            <visugpx:node>2</visugpx:node>
            </visugpx:TrkExtension>
        </extensions>
      </trkpt>
      <trkpt lat="45.35935" lon="4.61796">
        <ele>1065.4</ele>
      </trkpt>
      <trkpt lat="45.35944" lon="4.61801">
        <ele>1065.6</ele>
      </trkpt>
      <trkpt lat="45.35954" lon="4.61799">
        <ele>1066.4</ele>
      </trkpt>
      <trkpt lat="45.35994" lon="4.6178">
        <ele>1070.7</ele>
      </trkpt>
      <trkpt lat="45.36015" lon="4.61766">
        <ele>1072.7</ele>
      </trkpt>
      <trkpt lat="45.36041" lon="4.61746">
        <ele>1074.8</ele>
      </trkpt>
      <trkpt lat="45.36066" lon="4.61729">
        <ele>1074.7</ele>
      </trkpt>
      <trkpt lat="45.36093" lon="4.61716">
        <ele>1075.3</ele>
      </trkpt>
      <trkpt lat="45.36116" lon="4.61707">
        <ele>1077.3</ele>
      </trkpt>
      <trkpt lat="45.36123" lon="4.617">
        <ele>1077.7</ele>
      </trkpt>
      <trkpt lat="45.36157" lon="4.6166">
        <ele>1079.1</ele>
      </trkpt>
      <trkpt lat="45.36177" lon="4.61644">
        <ele>1080.2</ele>
      </trkpt>
      <trkpt lat="45.36192" lon="4.61622">
        <ele>1080.5</ele>
      </trkpt>
      <trkpt lat="45.36229" lon="4.61585">
        <ele>1083.9</ele>
      </trkpt>
      <trkpt lat="45.36244" lon="4.61576">
        <ele>1085.5</ele>
      </trkpt>
      <trkpt lat="45.36254" lon="4.61567">
        <ele>1085.1</ele>
      </trkpt>
      <trkpt lat="45.36264" lon="4.61553">
        <ele>1082.8</ele>
      </trkpt>
      <trkpt lat="45.36283" lon="4.6154">
        <ele>1080.8</ele>
      </trkpt>
      <trkpt lat="45.363" lon="4.61532">
        <ele>1079.7</ele>
      </trkpt>
      <trkpt lat="45.36328" lon="4.61527">
        <ele>1079.4</ele>
      </trkpt>
      <trkpt lat="45.36345" lon="4.61528">
        <ele>1078.2</ele>
      </trkpt>
      <trkpt lat="45.36388" lon="4.61538">
        <ele>1074.5</ele>
      </trkpt>
      <trkpt lat="45.36414" lon="4.61539">
        <ele>1071.4</ele>
      </trkpt>
      <trkpt lat="45.36476" lon="4.61555">
        <ele>1068.2</ele>
      </trkpt>
      <trkpt lat="45.365" lon="4.61557">
        <ele>1066.2</ele>
        <extensions>
          <visugpx:TrkExtension xmlns:visugpx="https://www.visugpx.com/editgpx/">
            <visugpx:node>3</visugpx:node>
            </visugpx:TrkExtension>
        </extensions>
      </trkpt>
      <trkpt lat="45.36532" lon="4.61559">
        <ele>1064.6</ele>
      </trkpt>
      <trkpt lat="45.36557" lon="4.61563">
        <ele>1063.6</ele>
      </trkpt>
      <trkpt lat="45.36573" lon="4.61568">
        <ele>1063.2</ele>
      </trkpt>
      <trkpt lat="45.36597" lon="4.61571">
        <ele>1062.4</ele>
      </trkpt>
      <trkpt lat="45.36618" lon="4.61585">
        <ele>1063.3</ele>
      </trkpt>
      <trkpt lat="45.3664" lon="4.61604">
        <ele>1064.9</ele>
      </trkpt>
      <trkpt lat="45.36647" lon="4.61607">
        <ele>1065</ele>
      </trkpt>
      <trkpt lat="45.36686" lon="4.61605">
        <ele>1063.5</ele>
      </trkpt>
      <trkpt lat="45.36771" lon="4.6162">
        <ele>1061.6</ele>
      </trkpt>
      <trkpt lat="45.36826" lon="4.61642">
        <ele>1060.4</ele>
      </trkpt>
      <trkpt lat="45.36842" lon="4.61645">
        <ele>1060</ele>
      </trkpt>
      <trkpt lat="45.3685" lon="4.61643">
        <ele>1059.6</ele>
      </trkpt>
      <trkpt lat="45.36857" lon="4.61639">
        <ele>1059.2</ele>
      </trkpt>
      <trkpt lat="45.36866" lon="4.61657">
        <ele>1060.2</ele>
      </trkpt>
      <trkpt lat="45.36867" lon="4.6166">
        <ele>1060.4</ele>
      </trkpt>
      <trkpt lat="45.36877" lon="4.6167">
        <ele>1060.5</ele>
      </trkpt>
      <trkpt lat="45.36911" lon="4.61642">
        <ele>1058.2</ele>
        <extensions>
          <visugpx:TrkExtension xmlns:visugpx="https://www.visugpx.com/editgpx/">
            <visugpx:node>5</visugpx:node>
            </visugpx:TrkExtension>
        </extensions>
      </trkpt>
      <trkpt lat="45.36956" lon="4.61609">
        <ele>1059.8</ele>
        <extensions>
          <visugpx:TrkExtension xmlns:visugpx="https://www.visugpx.com/editgpx/">
            <visugpx:node>1</visugpx:node>
            </visugpx:TrkExtension>
        </extensions>
      </trkpt>
      <trkpt lat="45.36951" lon="4.61551">
        <ele>1059.2</ele>
      </trkpt>
      <trkpt lat="45.3695" lon="4.61515">
        <ele>1058.9</ele>
      </trkpt>
      <trkpt lat="45.36952" lon="4.61443">
        <ele>1061.2</ele>
      </trkpt>
      <trkpt lat="45.36946" lon="4.61337">
        <ele>1061.7</ele>
      </trkpt>
      <trkpt lat="45.36949" lon="4.61291">
        <ele>1065.5</ele>
      </trkpt>
      <trkpt lat="45.36949" lon="4.61289">
        <ele>1065.7</ele>
      </trkpt>
      <trkpt lat="45.36947" lon="4.61262">
        <ele>1067.1</ele>
      </trkpt>
      <trkpt lat="45.36944" lon="4.61247">
        <ele>1067.6</ele>
      </trkpt>
      <trkpt lat="45.36925" lon="4.61194">
        <ele>1068.5</ele>
      </trkpt>
      <trkpt lat="45.3692" lon="4.61178">
        <ele>1068.8</ele>
      </trkpt>
      <trkpt lat="45.36907" lon="4.61085">
        <ele>1073.9</ele>
      </trkpt>
      <trkpt lat="45.3689" lon="4.61032">
        <ele>1075.9</ele>
      </trkpt>
      <trkpt lat="45.36883" lon="4.60998">
        <ele>1078</ele>
      </trkpt>
      <trkpt lat="45.36882" lon="4.6098">
        <ele>1077.9</ele>
        <extensions>
          <visugpx:TrkExtension xmlns:visugpx="https://www.visugpx.com/editgpx/">
            <visugpx:node>4</visugpx:node>
            </visugpx:TrkExtension>
        </extensions>
      </trkpt>
      <trkpt lat="45.36881" lon="4.60971">
        <ele>1077.8</ele>
      </trkpt>
      <trkpt lat="45.36922" lon="4.60979">
        <ele>1085.9</ele>
      </trkpt>
      <trkpt lat="45.36969" lon="4.61013">
        <ele>1098.6</ele>
      </trkpt>
      <trkpt lat="45.36978" lon="4.6103">
        <ele>1100</ele>
      </trkpt>
      <trkpt lat="45.37" lon="4.61039">
        <ele>1106.2</ele>
      </trkpt>
      <trkpt lat="45.37013" lon="4.61036">
        <ele>1111</ele>
      </trkpt>
      <trkpt lat="45.37022" lon="4.61026">
        <ele>1114.7</ele>
      </trkpt>
      <trkpt lat="45.3703" lon="4.61001">
        <ele>1118.7</ele>
      </trkpt>
      <trkpt lat="45.37037" lon="4.60988">
        <ele>1121.1</ele>
      </trkpt>
      <trkpt lat="45.37036" lon="4.60973">
        <ele>1120.8</ele>
      </trkpt>
      <trkpt lat="45.37041" lon="4.60955">
        <ele>1122.6</ele>
      </trkpt>
      <trkpt lat="45.37054" lon="4.60926">
        <ele>1126.8</ele>
      </trkpt>
      <trkpt lat="45.37071" lon="4.60893">
        <ele>1130.6</ele>
      </trkpt>
      <trkpt lat="45.371" lon="4.60848">
        <ele>1136.3</ele>
      </trkpt>
      <trkpt lat="45.37114" lon="4.60839">
        <ele>1139.4</ele>
      </trkpt>
      <trkpt lat="45.37128" lon="4.6081">
        <ele>1141.4</ele>
      </trkpt>
      <trkpt lat="45.37151" lon="4.60773">
        <ele>1144.8</ele>
      </trkpt>
      <trkpt lat="45.3716" lon="4.60764">
        <ele>1146.4</ele>
      </trkpt>
      <trkpt lat="45.37187" lon="4.60743">
        <ele>1149.3</ele>
      </trkpt>
      <trkpt lat="45.37209" lon="4.60721">
        <ele>1150.1</ele>
      </trkpt>
      <trkpt lat="45.37237" lon="4.60704">
        <ele>1151.9</ele>
      </trkpt>
      <trkpt lat="45.37274" lon="4.6071">
        <ele>1154.8</ele>
      </trkpt>
      <trkpt lat="45.37297" lon="4.60707">
        <ele>1154.9</ele>
      </trkpt>
      <trkpt lat="45.37318" lon="4.60708">
        <ele>1155.6</ele>
        <extensions>
          <visugpx:TrkExtension xmlns:visugpx="https://www.visugpx.com/editgpx/">
            <visugpx:node>5</visugpx:node>
            </visugpx:TrkExtension>
        </extensions>
      </trkpt>
      <trkpt lat="45.37382" lon="4.6071">
        <ele>1154.8</ele>
      </trkpt>
      <trkpt lat="45.37408" lon="4.60732">
        <ele>1157.9</ele>
      </trkpt>
      <trkpt lat="45.37431" lon="4.60732">
        <ele>1156.7</ele>
      </trkpt>
      <trkpt lat="45.37458" lon="4.60761">
        <ele>1160.2</ele>
        <extensions>
          <visugpx:TrkExtension xmlns:visugpx="https://www.visugpx.com/editgpx/">
            <visugpx:node>6</visugpx:node>
            </visugpx:TrkExtension>
        </extensions>
      </trkpt>
      <trkpt lat="45.37477" lon="4.60782">
        <ele>1162.5</ele>
      </trkpt>
      <trkpt lat="45.37531" lon="4.60802">
        <ele>1161.2</ele>
      </trkpt>
      <trkpt lat="45.37542" lon="4.60822">
        <ele>1163.8</ele>
      </trkpt>
      <trkpt lat="45.37573" lon="4.60829">
        <ele>1162.1</ele>
        <extensions>
          <visugpx:TrkExtension xmlns:visugpx="https://www.visugpx.com/editgpx/">
            <visugpx:node>7</visugpx:node>
            </visugpx:TrkExtension>
        </extensions>
      </trkpt>
      <trkpt lat="45.37573" lon="4.60829">
        <ele>1162.1</ele>
        <extensions>
          <visugpx:TrkExtension xmlns:visugpx="https://www.visugpx.com/editgpx/">
            <visugpx:node>9</visugpx:node>
            </visugpx:TrkExtension>
        </extensions>
      </trkpt>
      <trkpt lat="45.3769" lon="4.60941">
        <ele>1160.6</ele>
      </trkpt>
      <trkpt lat="45.37953" lon="4.61054">
        <ele>1134.2</ele>
        <extensions>
          <visugpx:TrkExtension xmlns:visugpx="https://www.visugpx.com/editgpx/">
            <visugpx:node>10</visugpx:node>
            </visugpx:TrkExtension>
        </extensions>
      </trkpt>
      <trkpt lat="45.3801" lon="4.61051">
        <ele>1129.8</ele>
      </trkpt>
      <trkpt lat="45.38085" lon="4.61061">
        <ele>1130.6</ele>
      </trkpt>
      <trkpt lat="45.38149" lon="4.61063">
        <ele>1133.4</ele>
      </trkpt>
      <trkpt lat="45.38185" lon="4.61055">
        <ele>1133.7</ele>
      </trkpt>
      <trkpt lat="45.38254" lon="4.61051">
        <ele>1136.6</ele>
      </trkpt>
      <trkpt lat="45.38287" lon="4.61035">
        <ele>1138.6</ele>
      </trkpt>
      <trkpt lat="45.38299" lon="4.61025">
        <ele>1139.3</ele>
      </trkpt>
      <trkpt lat="45.38301" lon="4.61019">
        <ele>1139.2</ele>
        <extensions>
          <visugpx:TrkExtension xmlns:visugpx="https://www.visugpx.com/editgpx/">
            <visugpx:node>11</visugpx:node>
            </visugpx:TrkExtension>
        </extensions>
      </trkpt>
      <trkpt lat="45.38304" lon="4.61011">
        <ele>1139.1</ele>
      </trkpt>
      <trkpt lat="45.38346" lon="4.61056">
        <ele>1145.7</ele>
      </trkpt>
      <trkpt lat="45.38355" lon="4.6107">
        <ele>1147</ele>
      </trkpt>
      <trkpt lat="45.38358" lon="4.61081">
        <ele>1147.4</ele>
      </trkpt>
      <trkpt lat="45.38361" lon="4.61101">
        <ele>1149.1</ele>
      </trkpt>
      <trkpt lat="45.38368" lon="4.61191">
        <ele>1158.6</ele>
      </trkpt>
      <trkpt lat="45.3838" lon="4.61254">
        <ele>1168.3</ele>
      </trkpt>
      <trkpt lat="45.38397" lon="4.61302">
        <ele>1177.3</ele>
      </trkpt>
      <trkpt lat="45.38406" lon="4.61321">
        <ele>1180.5</ele>
      </trkpt>
      <trkpt lat="45.38457" lon="4.61401">
        <ele>1193</ele>
      </trkpt>
      <trkpt lat="45.38476" lon="4.61437">
        <ele>1196.9</ele>
      </trkpt>
      <trkpt lat="45.38489" lon="4.61473">
        <ele>1201</ele>
      </trkpt>
      <trkpt lat="45.38491" lon="4.61482">
        <ele>1202.2</ele>
      </trkpt>
      <trkpt lat="45.3849" lon="4.61487">
        <ele>1202.7</ele>
        <extensions>
          <visugpx:TrkExtension xmlns:visugpx="https://www.visugpx.com/editgpx/">
            <visugpx:node>13</visugpx:node>
            </visugpx:TrkExtension>
        </extensions>
      </trkpt>
      <trkpt lat="45.38489" lon="4.61491">
        <ele>1203.1</ele>
      </trkpt>
      <trkpt lat="45.38483" lon="4.61504">
        <ele>1203.5</ele>
      </trkpt>
      <trkpt lat="45.38482" lon="4.61509">
        <ele>1203</ele>
      </trkpt>
      <trkpt lat="45.38488" lon="4.61517">
        <ele>1203</ele>
      </trkpt>
      <trkpt lat="45.38491" lon="4.6152">
        <ele>1203.1</ele>
      </trkpt>
      <trkpt lat="45.38495" lon="4.61522">
        <ele>1203.4</ele>
      </trkpt>
      <trkpt lat="45.38502" lon="4.61523">
        <ele>1204</ele>
      </trkpt>
      <trkpt lat="45.38516" lon="4.61521">
        <ele>1205.1</ele>
      </trkpt>
      <trkpt lat="45.38524" lon="4.6152">
        <ele>1205.7</ele>
      </trkpt>
      <trkpt lat="45.38539" lon="4.61525">
        <ele>1206.9</ele>
      </trkpt>
      <trkpt lat="45.38549" lon="4.61531">
        <ele>1207.9</ele>
      </trkpt>
      <trkpt lat="45.38552" lon="4.61536">
        <ele>1208.4</ele>
      </trkpt>
      <trkpt lat="45.38563" lon="4.61531">
        <ele>1209.2</ele>
      </trkpt>
      <trkpt lat="45.38599" lon="4.61517">
        <ele>1211.3</ele>
      </trkpt>
      <trkpt lat="45.38635" lon="4.61508">
        <ele>1214</ele>
      </trkpt>
      <trkpt lat="45.3867" lon="4.61507">
        <ele>1217.4</ele>
      </trkpt>
      <trkpt lat="45.38714" lon="4.61489">
        <ele>1219.4</ele>
      </trkpt>
      <trkpt lat="45.38752" lon="4.61468">
        <ele>1221.2</ele>
        <extensions>
          <visugpx:TrkExtension xmlns:visugpx="https://www.visugpx.com/editgpx/">
            <visugpx:node>14</visugpx:node>
            </visugpx:TrkExtension>
        </extensions>
      </trkpt>
      <trkpt lat="45.38767" lon="4.6146">
        <ele>1222.7</ele>
      </trkpt>
      <trkpt lat="45.38787" lon="4.61441">
        <ele>1224.3</ele>
      </trkpt>
      <trkpt lat="45.38788" lon="4.61447">
        <ele>1224.9</ele>
      </trkpt>
      <trkpt lat="45.38805" lon="4.61491">
        <ele>1230.1</ele>
      </trkpt>
      <trkpt lat="45.38817" lon="4.6151">
        <ele>1232.4</ele>
      </trkpt>
      <trkpt lat="45.38827" lon="4.61516">
        <ele>1233.7</ele>
      </trkpt>
      <trkpt lat="45.38839" lon="4.61516">
        <ele>1234.9</ele>
      </trkpt>
      <trkpt lat="45.38839" lon="4.61516">
        <ele>1234.9</ele>
        <extensions>
          <visugpx:TrkExtension xmlns:visugpx="https://www.visugpx.com/editgpx/">
            <visugpx:node>15</visugpx:node>
            </visugpx:TrkExtension>
        </extensions>
      </trkpt>
      <trkpt lat="45.38839" lon="4.61516">
        <ele>1234.9</ele>
      </trkpt>
      <trkpt lat="45.38839" lon="4.61531">
        <ele>1235.1</ele>
      </trkpt>
      <trkpt lat="45.38843" lon="4.61535">
        <ele>1235.5</ele>
      </trkpt>
      <trkpt lat="45.38858" lon="4.61553">
        <ele>1236.2</ele>
      </trkpt>
      <trkpt lat="45.38865" lon="4.61558">
        <ele>1236.3</ele>
      </trkpt>
      <trkpt lat="45.38874" lon="4.6156">
        <ele>1236.5</ele>
      </trkpt>
      <trkpt lat="45.38883" lon="4.61556">
        <ele>1236.9</ele>
      </trkpt>
      <trkpt lat="45.38892" lon="4.61574">
        <ele>1235.9</ele>
      </trkpt>
      <trkpt lat="45.38904" lon="4.61584">
        <ele>1235.1</ele>
      </trkpt>
      <trkpt lat="45.3891" lon="4.61584">
        <ele>1235</ele>
      </trkpt>
      <trkpt lat="45.38914" lon="4.61584">
        <ele>1234.9</ele>
        <extensions>
          <visugpx:TrkExtension xmlns:visugpx="https://www.visugpx.com/editgpx/">
            <visugpx:node>16</visugpx:node>
            </visugpx:TrkExtension>
        </extensions>
      </trkpt>
      <trkpt lat="45.3891" lon="4.61584">
        <ele>1235</ele>
      </trkpt>
      <trkpt lat="45.38906" lon="4.61591">
        <ele>1233.9</ele>
      </trkpt>
      <trkpt lat="45.389" lon="4.61599">
        <ele>1232.9</ele>
      </trkpt>
      <trkpt lat="45.38886" lon="4.61614">
        <ele>1231.9</ele>
      </trkpt>
      <trkpt lat="45.38886" lon="4.61625">
        <ele>1230.6</ele>
      </trkpt>
      <trkpt lat="45.38887" lon="4.6164">
        <ele>1228.8</ele>
      </trkpt>
      <trkpt lat="45.38894" lon="4.61657">
        <ele>1225.6</ele>
      </trkpt>
      <trkpt lat="45.38894" lon="4.61677">
        <ele>1223.2</ele>
      </trkpt>
      <trkpt lat="45.38908" lon="4.61706">
        <ele>1216.2</ele>
      </trkpt>
      <trkpt lat="45.38912" lon="4.61707">
        <ele>1215</ele>
      </trkpt>
      <trkpt lat="45.3892" lon="4.61719">
        <ele>1211</ele>
      </trkpt>
      <trkpt lat="45.38925" lon="4.6173">
        <ele>1207.8</ele>
      </trkpt>
      <trkpt lat="45.38933" lon="4.61758">
        <ele>1200.8</ele>
      </trkpt>
      <trkpt lat="45.38936" lon="4.61766">
        <ele>1198.7</ele>
      </trkpt>
      <trkpt lat="45.3894" lon="4.61766">
        <ele>1197.4</ele>
      </trkpt>
      <trkpt lat="45.38943" lon="4.61771">
        <ele>1195.7</ele>
      </trkpt>
      <trkpt lat="45.38948" lon="4.6177">
        <ele>1194.2</ele>
      </trkpt>
      <trkpt lat="45.38952" lon="4.61766">
        <ele>1193.5</ele>
      </trkpt>
      <trkpt lat="45.38956" lon="4.61768">
        <ele>1191.9</ele>
      </trkpt>
      <trkpt lat="45.38947" lon="4.61793">
        <ele>1191.1</ele>
      </trkpt>
      <trkpt lat="45.3894" lon="4.61819">
        <ele>1189.8</ele>
      </trkpt>
      <trkpt lat="45.38937" lon="4.61865">
        <ele>1186.4</ele>
      </trkpt>
      <trkpt lat="45.38936" lon="4.61893">
        <ele>1184.5</ele>
      </trkpt>
      <trkpt lat="45.38934" lon="4.61916">
        <ele>1183.6</ele>
      </trkpt>
      <trkpt lat="45.38934" lon="4.61938">
        <ele>1182.2</ele>
      </trkpt>
      <trkpt lat="45.38928" lon="4.6202">
        <ele>1178.8</ele>
      </trkpt>
      <trkpt lat="45.38907" lon="4.62043">
        <ele>1181.9</ele>
      </trkpt>
      <trkpt lat="45.38898" lon="4.6206">
        <ele>1179.8</ele>
      </trkpt>
      <trkpt lat="45.38899" lon="4.62067">
        <ele>1178.8</ele>
      </trkpt>
      <trkpt lat="45.38897" lon="4.62079">
        <ele>1176.9</ele>
      </trkpt>
      <trkpt lat="45.38897" lon="4.62088">
        <ele>1175.5</ele>
      </trkpt>
      <trkpt lat="45.38901" lon="4.62101">
        <ele>1173.6</ele>
      </trkpt>
      <trkpt lat="45.389" lon="4.62115">
        <ele>1171.2</ele>
      </trkpt>
      <trkpt lat="45.38904" lon="4.62134">
        <ele>1168.4</ele>
      </trkpt>
      <trkpt lat="45.38912" lon="4.62149">
        <ele>1166.5</ele>
      </trkpt>
      <trkpt lat="45.38915" lon="4.62166">
        <ele>1164</ele>
      </trkpt>
      <trkpt lat="45.38916" lon="4.62182">
        <ele>1163</ele>
      </trkpt>
      <trkpt lat="45.3892" lon="4.62197">
        <ele>1161.1</ele>
      </trkpt>
      <trkpt lat="45.38917" lon="4.62232">
        <ele>1160</ele>
      </trkpt>
      <trkpt lat="45.38929" lon="4.62277">
        <ele>1157.3</ele>
      </trkpt>
      <trkpt lat="45.3893" lon="4.62298">
        <ele>1158.3</ele>
      </trkpt>
      <trkpt lat="45.3893" lon="4.62318">
        <ele>1159.4</ele>
      </trkpt>
      <trkpt lat="45.38932" lon="4.62343">
        <ele>1160.5</ele>
      </trkpt>
      <trkpt lat="45.38933" lon="4.62358">
        <ele>1161.5</ele>
      </trkpt>
      <trkpt lat="45.38923" lon="4.62365">
        <ele>1165.1</ele>
      </trkpt>
      <trkpt lat="45.38916" lon="4.62376">
        <ele>1167.9</ele>
      </trkpt>
      <trkpt lat="45.3891" lon="4.62395">
        <ele>1167.9</ele>
      </trkpt>
      <trkpt lat="45.38906" lon="4.62449">
        <ele>1170.2</ele>
      </trkpt>
      <trkpt lat="45.38902" lon="4.62473">
        <ele>1170.2</ele>
      </trkpt>
      <trkpt lat="45.38906" lon="4.62482">
        <ele>1171.9</ele>
      </trkpt>
      <trkpt lat="45.38903" lon="4.62491">
        <ele>1171.4</ele>
      </trkpt>
      <trkpt lat="45.38908" lon="4.62499">
        <ele>1173.3</ele>
      </trkpt>
      <trkpt lat="45.3891" lon="4.62516">
        <ele>1174.8</ele>
      </trkpt>
      <trkpt lat="45.38909" lon="4.6254">
        <ele>1175.8</ele>
      </trkpt>
      <trkpt lat="45.38888" lon="4.62607">
        <ele>1175.3</ele>
      </trkpt>
      <trkpt lat="45.38883" lon="4.62629">
        <ele>1176.5</ele>
      </trkpt>
      <trkpt lat="45.38873" lon="4.6264">
        <ele>1176.2</ele>
      </trkpt>
      <trkpt lat="45.3887" lon="4.62639">
        <ele>1175.6</ele>
      </trkpt>
      <trkpt lat="45.38866" lon="4.62642">
        <ele>1175.4</ele>
      </trkpt>
      <trkpt lat="45.38862" lon="4.62656">
        <ele>1176.7</ele>
      </trkpt>
      <trkpt lat="45.38856" lon="4.62658">
        <ele>1176.2</ele>
      </trkpt>
      <trkpt lat="45.38852" lon="4.62665">
        <ele>1176.8</ele>
      </trkpt>
      <trkpt lat="45.38852" lon="4.62671">
        <ele>1177.4</ele>
      </trkpt>
      <trkpt lat="45.38847" lon="4.62681">
        <ele>1177.9</ele>
      </trkpt>
      <trkpt lat="45.38844" lon="4.6269">
        <ele>1178.6</ele>
      </trkpt>
      <trkpt lat="45.38831" lon="4.627">
        <ele>1178.7</ele>
      </trkpt>
      <trkpt lat="45.38821" lon="4.62705">
        <ele>1176.2</ele>
      </trkpt>
      <trkpt lat="45.38808" lon="4.62708">
        <ele>1172.5</ele>
      </trkpt>
      <trkpt lat="45.38799" lon="4.62714">
        <ele>1170.6</ele>
      </trkpt>
      <trkpt lat="45.38792" lon="4.62728">
        <ele>1170.7</ele>
      </trkpt>
      <trkpt lat="45.3879" lon="4.62736">
        <ele>1171.3</ele>
      </trkpt>
      <trkpt lat="45.38771" lon="4.62765">
        <ele>1169.1</ele>
      </trkpt>
      <trkpt lat="45.38769" lon="4.62773">
        <ele>1169.2</ele>
      </trkpt>
      <trkpt lat="45.38769" lon="4.62779">
        <ele>1169.6</ele>
        <extensions>
          <visugpx:TrkExtension xmlns:visugpx="https://www.visugpx.com/editgpx/">
            <visugpx:node>17</visugpx:node>
            </visugpx:TrkExtension>
        </extensions>
      </trkpt>
      <trkpt lat="45.38769" lon="4.62785">
        <ele>1170.1</ele>
      </trkpt>
      <trkpt lat="45.38766" lon="4.62804">
        <ele>1170.8</ele>
      </trkpt>
      <trkpt lat="45.38769" lon="4.62814">
        <ele>1172.2</ele>
      </trkpt>
      <trkpt lat="45.38778" lon="4.62817">
        <ele>1174.3</ele>
      </trkpt>
      <trkpt lat="45.38779" lon="4.62828">
        <ele>1175.2</ele>
      </trkpt>
      <trkpt lat="45.38783" lon="4.62851">
        <ele>1174.7</ele>
      </trkpt>
      <trkpt lat="45.38791" lon="4.62865">
        <ele>1174.8</ele>
      </trkpt>
      <trkpt lat="45.38769" lon="4.62894">
        <ele>1168.2</ele>
      </trkpt>
      <trkpt lat="45.38762" lon="4.62906">
        <ele>1165.9</ele>
      </trkpt>
      <trkpt lat="45.38756" lon="4.62911">
        <ele>1164.5</ele>
      </trkpt>
      <trkpt lat="45.38753" lon="4.62914">
        <ele>1163.7</ele>
      </trkpt>
      <trkpt lat="45.38747" lon="4.62937">
        <ele>1158.4</ele>
      </trkpt>
      <trkpt lat="45.38731" lon="4.62951">
        <ele>1149.7</ele>
      </trkpt>
      <trkpt lat="45.38717" lon="4.62961">
        <ele>1142.5</ele>
      </trkpt>
      <trkpt lat="45.38708" lon="4.62981">
        <ele>1135.6</ele>
      </trkpt>
      <trkpt lat="45.38699" lon="4.62991">
        <ele>1130.3</ele>
      </trkpt>
      <trkpt lat="45.38683" lon="4.63019">
        <ele>1120.1</ele>
      </trkpt>
      <trkpt lat="45.38674" lon="4.6303">
        <ele>1115.2</ele>
      </trkpt>
      <trkpt lat="45.3867" lon="4.63035">
        <ele>1113.1</ele>
      </trkpt>
      <trkpt lat="45.38668" lon="4.63028">
        <ele>1113.2</ele>
      </trkpt>
      <trkpt lat="45.38661" lon="4.6304">
        <ele>1109</ele>
      </trkpt>
      <trkpt lat="45.38647" lon="4.63048">
        <ele>1102.6</ele>
      </trkpt>
      <trkpt lat="45.38644" lon="4.63058">
        <ele>1100.4</ele>
      </trkpt>
      <trkpt lat="45.38625" lon="4.63076">
        <ele>1091.2</ele>
      </trkpt>
      <trkpt lat="45.38607" lon="4.63102">
        <ele>1082.4</ele>
      </trkpt>
      <trkpt lat="45.38585" lon="4.63123">
        <ele>1072.8</ele>
      </trkpt>
      <trkpt lat="45.38572" lon="4.63131">
        <ele>1068.2</ele>
      </trkpt>
      <trkpt lat="45.38551" lon="4.63158">
        <ele>1060.2</ele>
      </trkpt>
      <trkpt lat="45.38529" lon="4.63166">
        <ele>1053.4</ele>
      </trkpt>
      <trkpt lat="45.38525" lon="4.6317">
        <ele>1052.1</ele>
      </trkpt>
      <trkpt lat="45.38525" lon="4.63176">
        <ele>1051.9</ele>
      </trkpt>
      <trkpt lat="45.38524" lon="4.63186">
        <ele>1051.3</ele>
      </trkpt>
      <trkpt lat="45.38505" lon="4.63224">
        <ele>1044.5</ele>
      </trkpt>
      <trkpt lat="45.38486" lon="4.63244">
        <ele>1038.5</ele>
      </trkpt>
      <trkpt lat="45.38454" lon="4.63261">
        <ele>1029.3</ele>
      </trkpt>
      <trkpt lat="45.38429" lon="4.63269">
        <ele>1022</ele>
      </trkpt>
      <trkpt lat="45.38395" lon="4.63273">
        <ele>1013.9</ele>
      </trkpt>
      <trkpt lat="45.3839" lon="4.63276">
        <ele>1012.7</ele>
      </trkpt>
      <trkpt lat="45.38374" lon="4.63284">
        <ele>1009</ele>
      </trkpt>
      <trkpt lat="45.38367" lon="4.63307">
        <ele>1006.4</ele>
        <extensions>
          <visugpx:TrkExtension xmlns:visugpx="https://www.visugpx.com/editgpx/">
            <visugpx:node>18</visugpx:node>
            </visugpx:TrkExtension>
        </extensions>
      </trkpt>
      <trkpt lat="45.38366" lon="4.6331">
        <ele>1006</ele>
      </trkpt>
      <trkpt lat="45.38367" lon="4.63367">
        <ele>999.8</ele>
      </trkpt>
      <trkpt lat="45.38369" lon="4.63398">
        <ele>995.3</ele>
      </trkpt>
      <trkpt lat="45.3838" lon="4.63468">
        <ele>988.5</ele>
      </trkpt>
      <trkpt lat="45.38401" lon="4.6357">
        <ele>981.2</ele>
      </trkpt>
      <trkpt lat="45.38407" lon="4.63639">
        <ele>976</ele>
      </trkpt>
      <trkpt lat="45.38406" lon="4.63646">
        <ele>975.1</ele>
      </trkpt>
      <trkpt lat="45.38403" lon="4.63668">
        <ele>972.3</ele>
      </trkpt>
      <trkpt lat="45.38402" lon="4.63755">
        <ele>963.3</ele>
      </trkpt>
      <trkpt lat="45.38401" lon="4.63774">
        <ele>960.7</ele>
      </trkpt>
      <trkpt lat="45.38404" lon="4.63818">
        <ele>956</ele>
      </trkpt>
      <trkpt lat="45.38413" lon="4.63862">
        <ele>949.7</ele>
      </trkpt>
      <trkpt lat="45.38422" lon="4.63888">
        <ele>945.4</ele>
      </trkpt>
      <trkpt lat="45.3848" lon="4.63982">
        <ele>932.6</ele>
      </trkpt>
      <trkpt lat="45.38505" lon="4.64047">
        <ele>922.5</ele>
      </trkpt>
      <trkpt lat="45.38535" lon="4.64097">
        <ele>915.7</ele>
      </trkpt>
      <trkpt lat="45.38555" lon="4.64149">
        <ele>906.5</ele>
      </trkpt>
      <trkpt lat="45.38561" lon="4.64159">
        <ele>905</ele>
      </trkpt>
      <trkpt lat="45.38581" lon="4.6418">
        <ele>902.7</ele>
      </trkpt>
      <trkpt lat="45.38609" lon="4.642">
        <ele>899.3</ele>
      </trkpt>
      <trkpt lat="45.38623" lon="4.64217">
        <ele>896.9</ele>
      </trkpt>
      <trkpt lat="45.38634" lon="4.6422">
        <ele>897.1</ele>
      </trkpt>
      <trkpt lat="45.38642" lon="4.64214">
        <ele>898.5</ele>
      </trkpt>
      <trkpt lat="45.38635" lon="4.6422">
        <ele>897.2</ele>
      </trkpt>
      <trkpt lat="45.38626" lon="4.64224">
        <ele>895.9</ele>
      </trkpt>
      <trkpt lat="45.3861" lon="4.64223">
        <ele>895</ele>
      </trkpt>
      <trkpt lat="45.38594" lon="4.64227">
        <ele>893</ele>
      </trkpt>
      <trkpt lat="45.38599" lon="4.64261">
        <ele>887.2</ele>
      </trkpt>
      <trkpt lat="45.38606" lon="4.64289">
        <ele>884.4</ele>
      </trkpt>
      <trkpt lat="45.38609" lon="4.64356">
        <ele>877</ele>
      </trkpt>
      <trkpt lat="45.38606" lon="4.64415">
        <ele>870.3</ele>
      </trkpt>
      <trkpt lat="45.38616" lon="4.64461">
        <ele>866.7</ele>
      </trkpt>
      <trkpt lat="45.38621" lon="4.64479">
        <ele>865.4</ele>
      </trkpt>
      <trkpt lat="45.38632" lon="4.64503">
        <ele>864.4</ele>
      </trkpt>
      <trkpt lat="45.38688" lon="4.64584">
        <ele>853.3</ele>
      </trkpt>
      <trkpt lat="45.3869" lon="4.64594">
        <ele>851.1</ele>
      </trkpt>
      <trkpt lat="45.38688" lon="4.64603">
        <ele>849.5</ele>
      </trkpt>
      <trkpt lat="45.38677" lon="4.64616">
        <ele>847.7</ele>
      </trkpt>
      <trkpt lat="45.38667" lon="4.64622">
        <ele>847.2</ele>
      </trkpt>
      <trkpt lat="45.38658" lon="4.64626">
        <ele>845.1</ele>
      </trkpt>
      <trkpt lat="45.38647" lon="4.64631">
        <ele>842.5</ele>
      </trkpt>
      <trkpt lat="45.38637" lon="4.64633">
        <ele>840.8</ele>
      </trkpt>
      <trkpt lat="45.3863" lon="4.64632">
        <ele>840</ele>
        <extensions>
          <visugpx:TrkExtension xmlns:visugpx="https://www.visugpx.com/editgpx/">
            <visugpx:node>20</visugpx:node>
            </visugpx:TrkExtension>
        </extensions>
      </trkpt>
      <trkpt lat="45.38628" lon="4.64631">
        <ele>840</ele>
      </trkpt>
      <trkpt lat="45.38571" lon="4.64603">
        <ele>835.2</ele>
      </trkpt>
      <trkpt lat="45.3856" lon="4.64595">
        <ele>833.4</ele>
      </trkpt>
      <trkpt lat="45.38538" lon="4.64574">
        <ele>830.2</ele>
      </trkpt>
      <trkpt lat="45.38525" lon="4.64558">
        <ele>828.5</ele>
      </trkpt>
      <trkpt lat="45.38507" lon="4.64543">
        <ele>825</ele>
      </trkpt>
      <trkpt lat="45.38483" lon="4.6451">
        <ele>821.4</ele>
      </trkpt>
      <trkpt lat="45.38463" lon="4.64489">
        <ele>817.9</ele>
      </trkpt>
      <trkpt lat="45.38436" lon="4.64464">
        <ele>813.6</ele>
      </trkpt>
      <trkpt lat="45.38394" lon="4.64433">
        <ele>807.4</ele>
      </trkpt>
      <trkpt lat="45.38341" lon="4.64398">
        <ele>801.9</ele>
      </trkpt>
      <trkpt lat="45.38324" lon="4.64388">
        <ele>800.7</ele>
      </trkpt>
      <trkpt lat="45.38315" lon="4.64385">
        <ele>799.6</ele>
      </trkpt>
      <trkpt lat="45.3829" lon="4.6438">
        <ele>795.8</ele>
        <extensions>
          <visugpx:TrkExtension xmlns:visugpx="https://www.visugpx.com/editgpx/">
            <visugpx:node>22</visugpx:node>
            </visugpx:TrkExtension>
        </extensions>
      </trkpt>
      <trkpt lat="45.38286" lon="4.64379">
        <ele>795.3</ele>
      </trkpt>
      <trkpt lat="45.38232" lon="4.64363">
        <ele>789.7</ele>
      </trkpt>
      <trkpt lat="45.38207" lon="4.64349">
        <ele>789.5</ele>
      </trkpt>
      <trkpt lat="45.38192" lon="4.64334">
        <ele>790.8</ele>
      </trkpt>
      <trkpt lat="45.38157" lon="4.6429">
        <ele>792.1</ele>
      </trkpt>
      <trkpt lat="45.38125" lon="4.64234">
        <ele>793.6</ele>
      </trkpt>
      <trkpt lat="45.38099" lon="4.64197">
        <ele>793.3</ele>
      </trkpt>
      <trkpt lat="45.38058" lon="4.64153">
        <ele>791.7</ele>
      </trkpt>
      <trkpt lat="45.3803" lon="4.64115">
        <ele>794.7</ele>
      </trkpt>
      <trkpt lat="45.38014" lon="4.64099">
        <ele>795.1</ele>
      </trkpt>
      <trkpt lat="45.37998" lon="4.64087">
        <ele>795</ele>
      </trkpt>
      <trkpt lat="45.37987" lon="4.64078">
        <ele>797.2</ele>
      </trkpt>
      <trkpt lat="45.37953" lon="4.64068">
        <ele>798.8</ele>
      </trkpt>
      <trkpt lat="45.37856" lon="4.64056">
        <ele>802.3</ele>
      </trkpt>
      <trkpt lat="45.37796" lon="4.64054">
        <ele>805.8</ele>
      </trkpt>
      <trkpt lat="45.37735" lon="4.64058">
        <ele>807.1</ele>
      </trkpt>
      <trkpt lat="45.37732" lon="4.64057">
        <ele>806.9</ele>
      </trkpt>
      <trkpt lat="45.37737" lon="4.64064">
        <ele>806.8</ele>
        <extensions>
          <visugpx:TrkExtension xmlns:visugpx="https://www.visugpx.com/editgpx/">
            <visugpx:node>23</visugpx:node>
            </visugpx:TrkExtension>
        </extensions>
      </trkpt>
      <trkpt lat="45.37732" lon="4.64057">
        <ele>806.9</ele>
      </trkpt>
      <trkpt lat="45.37724" lon="4.64053">
        <ele>806.4</ele>
      </trkpt>
      <trkpt lat="45.37718" lon="4.64046">
        <ele>806.3</ele>
      </trkpt>
      <trkpt lat="45.37716" lon="4.64056">
        <ele>805.5</ele>
      </trkpt>
      <trkpt lat="45.37713" lon="4.64081">
        <ele>803.9</ele>
      </trkpt>
      <trkpt lat="45.37701" lon="4.64142">
        <ele>804.2</ele>
      </trkpt>
      <trkpt lat="45.37699" lon="4.64175">
        <ele>805.1</ele>
      </trkpt>
      <trkpt lat="45.37703" lon="4.6425">
        <ele>810.4</ele>
      </trkpt>
      <trkpt lat="45.37707" lon="4.64276">
        <ele>813</ele>
      </trkpt>
      <trkpt lat="45.37711" lon="4.64316">
        <ele>816.9</ele>
      </trkpt>
      <trkpt lat="45.37715" lon="4.64407">
        <ele>826.8</ele>
      </trkpt>
      <trkpt lat="45.37699" lon="4.64471">
        <ele>832.6</ele>
      </trkpt>
      <trkpt lat="45.3768" lon="4.64567">
        <ele>838.5</ele>
      </trkpt>
      <trkpt lat="45.37672" lon="4.64628">
        <ele>842.7</ele>
      </trkpt>
      <trkpt lat="45.37671" lon="4.6467">
        <ele>845.2</ele>
      </trkpt>
      <trkpt lat="45.37662" lon="4.64706">
        <ele>847.4</ele>
      </trkpt>
      <trkpt lat="45.37648" lon="4.64797">
        <ele>848.8</ele>
      </trkpt>
      <trkpt lat="45.37657" lon="4.6487">
        <ele>850.1</ele>
      </trkpt>
      <trkpt lat="45.37664" lon="4.64902">
        <ele>850.8</ele>
      </trkpt>
      <trkpt lat="45.37669" lon="4.65012">
        <ele>851.1</ele>
      </trkpt>
      <trkpt lat="45.37687" lon="4.65085">
        <ele>851.1</ele>
      </trkpt>
      <trkpt lat="45.37688" lon="4.65133">
        <ele>850.6</ele>
      </trkpt>
      <trkpt lat="45.37688" lon="4.65189">
        <ele>850.1</ele>
      </trkpt>
      <trkpt lat="45.37693" lon="4.6522">
        <ele>849.2</ele>
      </trkpt>
      <trkpt lat="45.37702" lon="4.65254">
        <ele>847.8</ele>
      </trkpt>
      <trkpt lat="45.37705" lon="4.65317">
        <ele>844.6</ele>
      </trkpt>
      <trkpt lat="45.37703" lon="4.65411">
        <ele>836.7</ele>
      </trkpt>
      <trkpt lat="45.37707" lon="4.6544">
        <ele>833.4</ele>
      </trkpt>
      <trkpt lat="45.37709" lon="4.6547">
        <ele>829.9</ele>
      </trkpt>
      <trkpt lat="45.37706" lon="4.65497">
        <ele>826.9</ele>
      </trkpt>
      <trkpt lat="45.3771" lon="4.65522">
        <ele>823.9</ele>
      </trkpt>
      <trkpt lat="45.37731" lon="4.65548">
        <ele>821.1</ele>
        <extensions>
          <visugpx:TrkExtension xmlns:visugpx="https://www.visugpx.com/editgpx/">
            <visugpx:node>24</visugpx:node>
            </visugpx:TrkExtension>
        </extensions>
      </trkpt>
      <trkpt lat="45.37731" lon="4.65548">
        <ele>821.1</ele>
      </trkpt>
      <trkpt lat="45.3773" lon="4.65575">
        <ele>818.2</ele>
      </trkpt>
      <trkpt lat="45.37721" lon="4.65643">
        <ele>812.2</ele>
      </trkpt>
      <trkpt lat="45.37721" lon="4.65671">
        <ele>809.8</ele>
      </trkpt>
      <trkpt lat="45.37723" lon="4.65696">
        <ele>807.3</ele>
      </trkpt>
      <trkpt lat="45.37742" lon="4.65782">
        <ele>801.3</ele>
      </trkpt>
      <trkpt lat="45.37752" lon="4.65816">
        <ele>799</ele>
      </trkpt>
      <trkpt lat="45.37769" lon="4.65863">
        <ele>791.9</ele>
      </trkpt>
      <trkpt lat="45.37776" lon="4.65898">
        <ele>788.6</ele>
      </trkpt>
      <trkpt lat="45.37775" lon="4.65921">
        <ele>786.9</ele>
      </trkpt>
      <trkpt lat="45.37784" lon="4.65948">
        <ele>783.1</ele>
      </trkpt>
      <trkpt lat="45.37787" lon="4.65971">
        <ele>780.1</ele>
      </trkpt>
      <trkpt lat="45.37781" lon="4.65984">
        <ele>778.6</ele>
      </trkpt>
      <trkpt lat="45.37767" lon="4.65996">
        <ele>777.3</ele>
      </trkpt>
      <trkpt lat="45.37753" lon="4.66011">
        <ele>775.4</ele>
      </trkpt>
      <trkpt lat="45.3775" lon="4.66028">
        <ele>773</ele>
      </trkpt>
      <trkpt lat="45.37757" lon="4.66056">
        <ele>768.9</ele>
      </trkpt>
      <trkpt lat="45.37767" lon="4.66126">
        <ele>759.1</ele>
      </trkpt>
      <trkpt lat="45.37774" lon="4.66145">
        <ele>756.5</ele>
      </trkpt>
      <trkpt lat="45.37787" lon="4.66161">
        <ele>754.6</ele>
      </trkpt>
      <trkpt lat="45.37793" lon="4.66179">
        <ele>753</ele>
      </trkpt>
      <trkpt lat="45.37789" lon="4.66268">
        <ele>745.2</ele>
      </trkpt>
      <trkpt lat="45.37799" lon="4.66298">
        <ele>742.6</ele>
      </trkpt>
      <trkpt lat="45.37809" lon="4.66317">
        <ele>741</ele>
      </trkpt>
      <trkpt lat="45.37819" lon="4.66328">
        <ele>740.2</ele>
      </trkpt>
      <trkpt lat="45.3783" lon="4.66332">
        <ele>740</ele>
      </trkpt>
      <trkpt lat="45.37874" lon="4.66333">
        <ele>733.7</ele>
      </trkpt>
      <trkpt lat="45.37878" lon="4.66328">
        <ele>733.5</ele>
      </trkpt>
      <trkpt lat="45.3787" lon="4.66344">
        <ele>733</ele>
      </trkpt>
      <trkpt lat="45.37862" lon="4.66358">
        <ele>732.4</ele>
      </trkpt>
      <trkpt lat="45.3786" lon="4.66365">
        <ele>731.8</ele>
        <extensions>
          <visugpx:TrkExtension xmlns:visugpx="https://www.visugpx.com/editgpx/">
            <visugpx:node>25</visugpx:node>
            </visugpx:TrkExtension>
        </extensions>
      </trkpt>
      <trkpt lat="45.37844" lon="4.66412">
        <ele>726.9</ele>
      </trkpt>
      <trkpt lat="45.37828" lon="4.66437">
        <ele>724.3</ele>
      </trkpt>
      <trkpt lat="45.37811" lon="4.66454">
        <ele>722.2</ele>
      </trkpt>
      <trkpt lat="45.37793" lon="4.66456">
        <ele>722</ele>
      </trkpt>
      <trkpt lat="45.37724" lon="4.66439">
        <ele>720</ele>
      </trkpt>
      <trkpt lat="45.37712" lon="4.66423">
        <ele>719.5</ele>
      </trkpt>
      <trkpt lat="45.37689" lon="4.66382">
        <ele>719.1</ele>
      </trkpt>
      <trkpt lat="45.37645" lon="4.6632">
        <ele>712.6</ele>
      </trkpt>
      <trkpt lat="45.37618" lon="4.66289">
        <ele>707.1</ele>
      </trkpt>
      <trkpt lat="45.37594" lon="4.66275">
        <ele>701.9</ele>
      </trkpt>
      <trkpt lat="45.37586" lon="4.66283">
        <ele>699.3</ele>
      </trkpt>
      <trkpt lat="45.37579" lon="4.66312">
        <ele>695.4</ele>
      </trkpt>
      <trkpt lat="45.3757" lon="4.66318">
        <ele>692.6</ele>
      </trkpt>
      <trkpt lat="45.3756" lon="4.66314">
        <ele>690.3</ele>
      </trkpt>
      <trkpt lat="45.37552" lon="4.66308">
        <ele>688.7</ele>
      </trkpt>
      <trkpt lat="45.37533" lon="4.66286">
        <ele>686.2</ele>
      </trkpt>
      <trkpt lat="45.37523" lon="4.66272">
        <ele>685.4</ele>
      </trkpt>
      <trkpt lat="45.37509" lon="4.66264">
        <ele>683.2</ele>
      </trkpt>
      <trkpt lat="45.375" lon="4.66265">
        <ele>681</ele>
      </trkpt>
      <trkpt lat="45.3747" lon="4.66275">
        <ele>675</ele>
      </trkpt>
      <trkpt lat="45.37416" lon="4.66264">
        <ele>668.1</ele>
      </trkpt>
      <trkpt lat="45.3741" lon="4.66272">
        <ele>666.1</ele>
      </trkpt>
      <trkpt lat="45.3741" lon="4.66289">
        <ele>663.9</ele>
      </trkpt>
      <trkpt lat="45.37414" lon="4.66327">
        <ele>659.5</ele>
      </trkpt>
      <trkpt lat="45.37423" lon="4.66349">
        <ele>658</ele>
      </trkpt>
      <trkpt lat="45.37434" lon="4.66365">
        <ele>657.8</ele>
      </trkpt>
      <trkpt lat="45.37438" lon="4.66384">
        <ele>656.3</ele>
      </trkpt>
      <trkpt lat="45.37436" lon="4.66397">
        <ele>654.3</ele>
      </trkpt>
      <trkpt lat="45.37429" lon="4.66403">
        <ele>652.2</ele>
      </trkpt>
      <trkpt lat="45.3742" lon="4.66398">
        <ele>651.1</ele>
      </trkpt>
      <trkpt lat="45.37406" lon="4.66394">
        <ele>649.7</ele>
      </trkpt>
      <trkpt lat="45.3739" lon="4.66395">
        <ele>647.7</ele>
      </trkpt>
      <trkpt lat="45.37364" lon="4.66402">
        <ele>643.9</ele>
      </trkpt>
      <trkpt lat="45.37344" lon="4.66401">
        <ele>641.7</ele>
      </trkpt>
      <trkpt lat="45.37332" lon="4.66396">
        <ele>640.8</ele>
        <extensions>
          <visugpx:TrkExtension xmlns:visugpx="https://www.visugpx.com/editgpx/">
            <visugpx:node>26</visugpx:node>
            </visugpx:TrkExtension>
        </extensions>
      </trkpt>
      <trkpt lat="45.37322" lon="4.66391">
        <ele>639.7</ele>
      </trkpt>
      <trkpt lat="45.37292" lon="4.6637">
        <ele>637.6</ele>
      </trkpt>
      <trkpt lat="45.37268" lon="4.66348">
        <ele>637.2</ele>
      </trkpt>
      <trkpt lat="45.37247" lon="4.66332">
        <ele>636.8</ele>
      </trkpt>
      <trkpt lat="45.3724" lon="4.66331">
        <ele>636</ele>
      </trkpt>
      <trkpt lat="45.37238" lon="4.66337">
        <ele>634.7</ele>
      </trkpt>
      <trkpt lat="45.37226" lon="4.66329">
        <ele>634.3</ele>
      </trkpt>
      <trkpt lat="45.37213" lon="4.66325">
        <ele>633</ele>
      </trkpt>
      <trkpt lat="45.37202" lon="4.66325">
        <ele>631.4</ele>
      </trkpt>
      <trkpt lat="45.37165" lon="4.66339">
        <ele>623.5</ele>
      </trkpt>
      <trkpt lat="45.37149" lon="4.66338">
        <ele>620.1</ele>
      </trkpt>
      <trkpt lat="45.3713" lon="4.66331">
        <ele>617</ele>
      </trkpt>
      <trkpt lat="45.37113" lon="4.66319">
        <ele>614.6</ele>
      </trkpt>
      <trkpt lat="45.37069" lon="4.66267">
        <ele>610.2</ele>
      </trkpt>
      <trkpt lat="45.37065" lon="4.66262">
        <ele>609.7</ele>
      </trkpt>
      <trkpt lat="45.37053" lon="4.66258">
        <ele>607</ele>
      </trkpt>
      <trkpt lat="45.37015" lon="4.66252">
        <ele>597.7</ele>
      </trkpt>
      <trkpt lat="45.37005" lon="4.66253">
        <ele>595</ele>
      </trkpt>
      <trkpt lat="45.36997" lon="4.6626">
        <ele>592.2</ele>
      </trkpt>
      <trkpt lat="45.36993" lon="4.66271">
        <ele>590.2</ele>
      </trkpt>
      <trkpt lat="45.36991" lon="4.66284">
        <ele>588.3</ele>
      </trkpt>
      <trkpt lat="45.36984" lon="4.663">
        <ele>585.4</ele>
      </trkpt>
      <trkpt lat="45.36978" lon="4.6631">
        <ele>583.5</ele>
      </trkpt>
      <trkpt lat="45.36941" lon="4.66279">
        <ele>580</ele>
      </trkpt>
      <trkpt lat="45.36937" lon="4.66263">
        <ele>580.3</ele>
      </trkpt>
      <trkpt lat="45.3693" lon="4.66235">
        <ele>579.9</ele>
      </trkpt>
      <trkpt lat="45.36926" lon="4.66206">
        <ele>579.3</ele>
      </trkpt>
      <trkpt lat="45.3692" lon="4.66189">
        <ele>577.9</ele>
      </trkpt>
      <trkpt lat="45.36901" lon="4.66192">
        <ele>575.2</ele>
      </trkpt>
      <trkpt lat="45.36896" lon="4.66199">
        <ele>574.7</ele>
      </trkpt>
      <trkpt lat="45.36841" lon="4.6629">
        <ele>568.7</ele>
      </trkpt>
      <trkpt lat="45.36827" lon="4.66302">
        <ele>567.2</ele>
      </trkpt>
      <trkpt lat="45.36825" lon="4.66306">
        <ele>566.9</ele>
      </trkpt>
      <trkpt lat="45.3682" lon="4.66314">
        <ele>566.2</ele>
      </trkpt>
      <trkpt lat="45.36812" lon="4.66335">
        <ele>564.9</ele>
      </trkpt>
      <trkpt lat="45.36787" lon="4.66334">
        <ele>562.5</ele>
      </trkpt>
      <trkpt lat="45.36786" lon="4.66351">
        <ele>561.4</ele>
      </trkpt>
      <trkpt lat="45.36792" lon="4.66397">
        <ele>559.2</ele>
      </trkpt>
      <trkpt lat="45.36794" lon="4.66424">
        <ele>557.7</ele>
      </trkpt>
      <trkpt lat="45.36796" lon="4.66466">
        <ele>554.7</ele>
      </trkpt>
      <trkpt lat="45.3681" lon="4.66555">
        <ele>549.3</ele>
      </trkpt>
      <trkpt lat="45.3681" lon="4.66566">
        <ele>548.7</ele>
      </trkpt>
      <trkpt lat="45.36807" lon="4.6657">
        <ele>548.4</ele>
      </trkpt>
      <trkpt lat="45.36808" lon="4.66623">
        <ele>544.6</ele>
      </trkpt>
      <trkpt lat="45.36804" lon="4.66683">
        <ele>537.9</ele>
      </trkpt>
      <trkpt lat="45.36807" lon="4.66718">
        <ele>531.4</ele>
      </trkpt>
      <trkpt lat="45.36822" lon="4.66754">
        <ele>525.1</ele>
      </trkpt>
      <trkpt lat="45.36838" lon="4.66828">
        <ele>515.3</ele>
      </trkpt>
      <trkpt lat="45.36829" lon="4.66854">
        <ele>511.6</ele>
      </trkpt>
      <trkpt lat="45.36812" lon="4.6692">
        <ele>505.4</ele>
      </trkpt>
      <trkpt lat="45.36806" lon="4.66963">
        <ele>501.4</ele>
      </trkpt>
      <trkpt lat="45.3681" lon="4.67007">
        <ele>498.8</ele>
      </trkpt>
      <trkpt lat="45.3682" lon="4.67035">
        <ele>497.7</ele>
      </trkpt>
      <trkpt lat="45.36848" lon="4.67072">
        <ele>499.8</ele>
      </trkpt>
      <trkpt lat="45.36869" lon="4.6711">
        <ele>500.1</ele>
      </trkpt>
      <trkpt lat="45.36876" lon="4.67149">
        <ele>496.6</ele>
      </trkpt>
      <trkpt lat="45.36888" lon="4.67185">
        <ele>494.7</ele>
      </trkpt>
      <trkpt lat="45.36893" lon="4.67209">
        <ele>492.9</ele>
      </trkpt>
      <trkpt lat="45.36889" lon="4.67226">
        <ele>490.1</ele>
      </trkpt>
      <trkpt lat="45.36885" lon="4.67232">
        <ele>488.7</ele>
      </trkpt>
      <trkpt lat="45.36884" lon="4.67259">
        <ele>485.8</ele>
      </trkpt>
      <trkpt lat="45.36881" lon="4.67268">
        <ele>484.5</ele>
      </trkpt>
      <trkpt lat="45.36875" lon="4.67276">
        <ele>482.8</ele>
      </trkpt>
      <trkpt lat="45.36848" lon="4.67294">
        <ele>476.8</ele>
      </trkpt>
      <trkpt lat="45.36841" lon="4.67297">
        <ele>475.3</ele>
      </trkpt>
      <trkpt lat="45.36857" lon="4.67336">
        <ele>474.8</ele>
      </trkpt>
      <trkpt lat="45.36875" lon="4.67399">
        <ele>474.5</ele>
      </trkpt>
      <trkpt lat="45.36879" lon="4.67429">
        <ele>473.5</ele>
      </trkpt>
      <trkpt lat="45.36881" lon="4.67452">
        <ele>472.7</ele>
      </trkpt>
      <trkpt lat="45.36881" lon="4.67454">
        <ele>472.6</ele>
      </trkpt>
      <trkpt lat="45.36887" lon="4.67473">
        <ele>472.7</ele>
      </trkpt>
      <trkpt lat="45.36898" lon="4.67507">
        <ele>472.6</ele>
      </trkpt>
      <trkpt lat="45.36903" lon="4.6753">
        <ele>471.8</ele>
      </trkpt>
      <trkpt lat="45.36901" lon="4.67547">
        <ele>470.3</ele>
      </trkpt>
      <trkpt lat="45.36892" lon="4.67577">
        <ele>466.9</ele>
      </trkpt>
      <trkpt lat="45.3689" lon="4.67579">
        <ele>466.5</ele>
      </trkpt>
      <trkpt lat="45.36889" lon="4.67581">
        <ele>466.2</ele>
      </trkpt>
      <trkpt lat="45.36884" lon="4.67587">
        <ele>465.2</ele>
      </trkpt>
      <trkpt lat="45.36746" lon="4.6772">
        <ele>450.3</ele>
      </trkpt>
      <trkpt lat="45.3672" lon="4.67742">
        <ele>447.3</ele>
      </trkpt>
      <trkpt lat="45.36651" lon="4.67875">
        <ele>435.7</ele>
      </trkpt>
      <trkpt lat="45.36624" lon="4.67926">
        <ele>430.7</ele>
      </trkpt>
      <trkpt lat="45.36616" lon="4.67942">
        <ele>428.9</ele>
      </trkpt>
      <trkpt lat="45.36609" lon="4.67956">
        <ele>427.4</ele>
      </trkpt>
      <trkpt lat="45.36576" lon="4.68018">
        <ele>422.1</ele>
      </trkpt>
      <trkpt lat="45.36566" lon="4.68035">
        <ele>421</ele>
      </trkpt>
      <trkpt lat="45.36553" lon="4.68058">
        <ele>419.6</ele>
      </trkpt>
      <trkpt lat="45.36541" lon="4.68078">
        <ele>418.2</ele>
      </trkpt>
      <trkpt lat="45.36518" lon="4.68114">
        <ele>415.6</ele>
      </trkpt>
      <trkpt lat="45.36511" lon="4.68132">
        <ele>414.6</ele>
      </trkpt>
      <trkpt lat="45.36505" lon="4.68158">
        <ele>413.4</ele>
      </trkpt>
      <trkpt lat="45.36497" lon="4.6818">
        <ele>412.7</ele>
      </trkpt>
      <trkpt lat="45.36478" lon="4.68213">
        <ele>411.8</ele>
      </trkpt>
      <trkpt lat="45.3647" lon="4.68228">
        <ele>411.6</ele>
      </trkpt>
      <trkpt lat="45.36464" lon="4.6824">
        <ele>411.5</ele>
      </trkpt>
      <trkpt lat="45.36465" lon="4.68244">
        <ele>411.6</ele>
      </trkpt>
      <trkpt lat="45.36457" lon="4.68245">
        <ele>411.5</ele>
      </trkpt>
      <trkpt lat="45.36447" lon="4.68249">
        <ele>411.4</ele>
      </trkpt>
      <trkpt lat="45.36423" lon="4.68264">
        <ele>410.6</ele>
      </trkpt>
      <trkpt lat="45.36418" lon="4.68269">
        <ele>410.3</ele>
      </trkpt>
      <trkpt lat="45.36416" lon="4.68271">
        <ele>410.3</ele>
      </trkpt>
      <trkpt lat="45.36411" lon="4.68275">
        <ele>410.2</ele>
      </trkpt>
      <trkpt lat="45.36405" lon="4.68282">
        <ele>410.1</ele>
      </trkpt>
      <trkpt lat="45.36398" lon="4.6829">
        <ele>410</ele>
      </trkpt>
      <trkpt lat="45.36369" lon="4.68328">
        <ele>409.3</ele>
      </trkpt>
      <trkpt lat="45.36351" lon="4.68351">
        <ele>409.2</ele>
      </trkpt>
      <trkpt lat="45.36335" lon="4.68374">
        <ele>409</ele>
      </trkpt>
      <trkpt lat="45.36316" lon="4.68406">
        <ele>408.5</ele>
      </trkpt>
      <trkpt lat="45.36307" lon="4.6842">
        <ele>408.2</ele>
      </trkpt>
      <trkpt lat="45.36301" lon="4.68431">
        <ele>407.9</ele>
      </trkpt>
      <trkpt lat="45.36289" lon="4.68447">
        <ele>407.4</ele>
      </trkpt>
      <trkpt lat="45.36287" lon="4.68453">
        <ele>407.2</ele>
      </trkpt>
      <trkpt lat="45.36286" lon="4.68456">
        <ele>407.1</ele>
      </trkpt>
      <trkpt lat="45.36284" lon="4.68469">
        <ele>406.6</ele>
      </trkpt>
      <trkpt lat="45.36283" lon="4.68479">
        <ele>406.2</ele>
      </trkpt>
      <trkpt lat="45.36282" lon="4.68483">
        <ele>406</ele>
      </trkpt>
      <trkpt lat="45.3628" lon="4.68486">
        <ele>405.9</ele>
      </trkpt>
      <trkpt lat="45.36249" lon="4.6852">
        <ele>404.5</ele>
      </trkpt>
      <trkpt lat="45.36245" lon="4.68524">
        <ele>404.4</ele>
      </trkpt>
      <trkpt lat="45.36239" lon="4.68516">
        <ele>404.5</ele>
      </trkpt>
      <trkpt lat="45.36237" lon="4.68514">
        <ele>404.6</ele>
      </trkpt>
      <trkpt lat="45.3623" lon="4.68508">
        <ele>404.7</ele>
      </trkpt>
      <trkpt lat="45.36225" lon="4.68503">
        <ele>404.9</ele>
      </trkpt>
      <trkpt lat="45.36221" lon="4.685">
        <ele>405</ele>
      </trkpt>
      <trkpt lat="45.36217" lon="4.68495">
        <ele>405.2</ele>
      </trkpt>
      <trkpt lat="45.36216" lon="4.68497">
        <ele>405.1</ele>
      </trkpt>
      <trkpt lat="45.36208" lon="4.68503">
        <ele>404.9</ele>
      </trkpt>
      <trkpt lat="45.36196" lon="4.68506">
        <ele>404.7</ele>
      </trkpt>
      <trkpt lat="45.36191" lon="4.68507">
        <ele>404.7</ele>
      </trkpt>
      <trkpt lat="45.36189" lon="4.68488">
        <ele>405.4</ele>
      </trkpt>
    </trkseg>
  </trk>
</gpx>